<?xml version="1.0" encoding="UTF-8" standalone="no" ?>
<gpx xmlns="http://www.topografix.com/GPX/1/1" xmlns:xsi="http://www.w3.org/2001/XMLSchema-instance" xsi:schemaLocation="http://www.topografix.com/GPX/1/1 http://www.topografix.com/GPX/1/1/gpx.xsd" version="1.1" creator="VisuGPX - https://www.visugpx.com">
  <metadata>
    <name>randonnée le chamblage</name>
    <desc><![CDATA[chemins défoncés du au débardages

]]></desc>
  </metadata>
  <trk>
    <name><![CDATA[Tracé actuel: 12 FEV 2019 13:03]]></name>
    <trkseg>
      <trkpt lat="49.63476" lon="4.98175">
        <ele>184.23</ele>
        <time>2019-02-12T12:03:02Z</time>
      </trkpt>
      <trkpt lat="49.63473" lon="4.98189">
        <ele>186.15</ele>
        <time>2019-02-12T12:03:18Z</time>
      </trkpt>
      <trkpt lat="49.63464" lon="4.98216">
        <ele>187.11</ele>
        <time>2019-02-12T12:03:39Z</time>
      </trkpt>
      <trkpt lat="49.63453" lon="4.98235">
        <ele>188.56</ele>
        <time>2019-02-12T12:03:54Z</time>
      </trkpt>
      <trkpt lat="49.63442" lon="4.98255">
        <ele>190</ele>
        <time>2019-02-12T12:04:11Z</time>
      </trkpt>
      <trkpt lat="49.63433" lon="4.98266">
        <ele>190.96</ele>
        <time>2019-02-12T12:04:21Z</time>
      </trkpt>
      <trkpt lat="49.63421" lon="4.9828">
        <ele>194.8</ele>
        <time>2019-02-12T12:04:37Z</time>
      </trkpt>
      <trkpt lat="49.63408" lon="4.98299">
        <ele>198.65</ele>
        <time>2019-02-12T12:04:54Z</time>
      </trkpt>
      <trkpt lat="49.63395" lon="4.98312">
        <ele>199.13</ele>
        <time>2019-02-12T12:05:09Z</time>
      </trkpt>
      <trkpt lat="49.63381" lon="4.98324">
        <ele>201.53</ele>
        <time>2019-02-12T12:05:25Z</time>
      </trkpt>
      <trkpt lat="49.63368" lon="4.98332">
        <ele>202.98</ele>
        <time>2019-02-12T12:05:41Z</time>
      </trkpt>
      <trkpt lat="49.63355" lon="4.98344">
        <ele>202.49</ele>
        <time>2019-02-12T12:05:55Z</time>
      </trkpt>
      <trkpt lat="49.63335" lon="4.98357">
        <ele>203.94</ele>
        <time>2019-02-12T12:06:16Z</time>
      </trkpt>
      <trkpt lat="49.6332" lon="4.98352">
        <ele>203.46</ele>
        <time>2019-02-12T12:06:32Z</time>
      </trkpt>
      <trkpt lat="49.63304" lon="4.98347">
        <ele>206.34</ele>
        <time>2019-02-12T12:06:47Z</time>
      </trkpt>
      <trkpt lat="49.63289" lon="4.98346">
        <ele>211.15</ele>
        <time>2019-02-12T12:07:01Z</time>
      </trkpt>
      <trkpt lat="49.63273" lon="4.98346">
        <ele>214.99</ele>
        <time>2019-02-12T12:07:19Z</time>
      </trkpt>
      <trkpt lat="49.6326" lon="4.98344">
        <ele>217.4</ele>
        <time>2019-02-12T12:07:33Z</time>
      </trkpt>
      <trkpt lat="49.63244" lon="4.98341">
        <ele>220.28</ele>
        <time>2019-02-12T12:07:48Z</time>
      </trkpt>
      <trkpt lat="49.63242" lon="4.9834">
        <ele>220.76</ele>
        <time>2019-02-12T12:07:50Z</time>
      </trkpt>
      <trkpt lat="49.63237" lon="4.98341">
        <ele>221.72</ele>
        <time>2019-02-12T12:07:55Z</time>
      </trkpt>
      <trkpt lat="49.6323" lon="4.98339">
        <ele>222.68</ele>
        <time>2019-02-12T12:08:00Z</time>
      </trkpt>
      <trkpt lat="49.63214" lon="4.98337">
        <ele>223.64</ele>
        <time>2019-02-12T12:08:14Z</time>
      </trkpt>
      <trkpt lat="49.63198" lon="4.98337">
        <ele>224.61</ele>
        <time>2019-02-12T12:08:28Z</time>
      </trkpt>
      <trkpt lat="49.63188" lon="4.98335">
        <ele>225.57</ele>
        <time>2019-02-12T12:08:36Z</time>
      </trkpt>
      <trkpt lat="49.63175" lon="4.98332">
        <ele>229.41</ele>
        <time>2019-02-12T12:08:48Z</time>
      </trkpt>
      <trkpt lat="49.6316" lon="4.98333">
        <ele>229.89</ele>
        <time>2019-02-12T12:09:03Z</time>
      </trkpt>
      <trkpt lat="49.63145" lon="4.98331">
        <ele>232.3</ele>
        <time>2019-02-12T12:09:19Z</time>
      </trkpt>
      <trkpt lat="49.63129" lon="4.98326">
        <ele>229.41</ele>
        <time>2019-02-12T12:09:33Z</time>
      </trkpt>
      <trkpt lat="49.63114" lon="4.98329">
        <ele>226.53</ele>
        <time>2019-02-12T12:09:50Z</time>
      </trkpt>
      <trkpt lat="49.63096" lon="4.98328">
        <ele>224.12</ele>
        <time>2019-02-12T12:10:07Z</time>
      </trkpt>
      <trkpt lat="49.63077" lon="4.98325">
        <ele>225.09</ele>
        <time>2019-02-12T12:10:24Z</time>
      </trkpt>
      <trkpt lat="49.63059" lon="4.98324">
        <ele>224.61</ele>
        <time>2019-02-12T12:10:41Z</time>
      </trkpt>
      <trkpt lat="49.6304" lon="4.98321">
        <ele>226.05</ele>
        <time>2019-02-12T12:10:59Z</time>
      </trkpt>
      <trkpt lat="49.6303" lon="4.9832">
        <ele>226.53</ele>
        <time>2019-02-12T12:11:10Z</time>
      </trkpt>
      <trkpt lat="49.63013" lon="4.98318">
        <ele>228.45</ele>
        <time>2019-02-12T12:11:25Z</time>
      </trkpt>
      <trkpt lat="49.62999" lon="4.98318">
        <ele>230.37</ele>
        <time>2019-02-12T12:11:39Z</time>
      </trkpt>
      <trkpt lat="49.6299" lon="4.98315">
        <ele>231.81</ele>
        <time>2019-02-12T12:11:52Z</time>
      </trkpt>
      <trkpt lat="49.62985" lon="4.98316">
        <ele>231.33</ele>
        <time>2019-02-12T12:12:04Z</time>
      </trkpt>
      <trkpt lat="49.62972" lon="4.9832">
        <ele>230.37</ele>
        <time>2019-02-12T12:12:18Z</time>
      </trkpt>
      <trkpt lat="49.62951" lon="4.98316">
        <ele>229.41</ele>
        <time>2019-02-12T12:12:37Z</time>
      </trkpt>
      <trkpt lat="49.62937" lon="4.98319">
        <ele>230.37</ele>
        <time>2019-02-12T12:12:52Z</time>
      </trkpt>
      <trkpt lat="49.62919" lon="4.98326">
        <ele>230.85</ele>
        <time>2019-02-12T12:13:10Z</time>
      </trkpt>
      <trkpt lat="49.62903" lon="4.98332">
        <ele>232.78</ele>
        <time>2019-02-12T12:13:26Z</time>
      </trkpt>
      <trkpt lat="49.62888" lon="4.98338">
        <ele>231.81</ele>
        <time>2019-02-12T12:13:42Z</time>
      </trkpt>
      <trkpt lat="49.62866" lon="4.9834">
        <ele>235.18</ele>
        <time>2019-02-12T12:14:00Z</time>
      </trkpt>
      <trkpt lat="49.62852" lon="4.98346">
        <ele>234.22</ele>
        <time>2019-02-12T12:14:14Z</time>
      </trkpt>
      <trkpt lat="49.62836" lon="4.98354">
        <ele>232.3</ele>
        <time>2019-02-12T12:14:30Z</time>
      </trkpt>
      <trkpt lat="49.62824" lon="4.98364">
        <ele>235.66</ele>
        <time>2019-02-12T12:14:45Z</time>
      </trkpt>
      <trkpt lat="49.62814" lon="4.9837">
        <ele>239.51</ele>
        <time>2019-02-12T12:14:58Z</time>
      </trkpt>
      <trkpt lat="49.62798" lon="4.98384">
        <ele>241.43</ele>
        <time>2019-02-12T12:15:15Z</time>
      </trkpt>
      <trkpt lat="49.62781" lon="4.98398">
        <ele>243.35</ele>
        <time>2019-02-12T12:15:31Z</time>
      </trkpt>
      <trkpt lat="49.62764" lon="4.98413">
        <ele>246.72</ele>
        <time>2019-02-12T12:15:48Z</time>
      </trkpt>
      <trkpt lat="49.62758" lon="4.98417">
        <ele>247.68</ele>
        <time>2019-02-12T12:15:54Z</time>
      </trkpt>
      <trkpt lat="49.62741" lon="4.98431">
        <ele>250.08</ele>
        <time>2019-02-12T12:16:12Z</time>
      </trkpt>
      <trkpt lat="49.62738" lon="4.98434">
        <ele>249.12</ele>
        <time>2019-02-12T12:16:24Z</time>
      </trkpt>
      <trkpt lat="49.62733" lon="4.98438">
        <ele>249.6</ele>
        <time>2019-02-12T12:16:30Z</time>
      </trkpt>
      <trkpt lat="49.62719" lon="4.98449">
        <ele>251.04</ele>
        <time>2019-02-12T12:16:47Z</time>
      </trkpt>
      <trkpt lat="49.62705" lon="4.98461">
        <ele>253.93</ele>
        <time>2019-02-12T12:17:01Z</time>
      </trkpt>
      <trkpt lat="49.62689" lon="4.98474">
        <ele>253.93</ele>
        <time>2019-02-12T12:17:20Z</time>
      </trkpt>
      <trkpt lat="49.62675" lon="4.98485">
        <ele>254.89</ele>
        <time>2019-02-12T12:17:35Z</time>
      </trkpt>
      <trkpt lat="49.62661" lon="4.98498">
        <ele>252.96</ele>
        <time>2019-02-12T12:17:52Z</time>
      </trkpt>
      <trkpt lat="49.62645" lon="4.98511">
        <ele>253.93</ele>
        <time>2019-02-12T12:18:08Z</time>
      </trkpt>
      <trkpt lat="49.62631" lon="4.98523">
        <ele>254.41</ele>
        <time>2019-02-12T12:18:24Z</time>
      </trkpt>
      <trkpt lat="49.62612" lon="4.98539">
        <ele>254.41</ele>
        <time>2019-02-12T12:18:43Z</time>
      </trkpt>
      <trkpt lat="49.626" lon="4.9855">
        <ele>254.89</ele>
        <time>2019-02-12T12:18:57Z</time>
      </trkpt>
      <trkpt lat="49.62579" lon="4.98567">
        <ele>255.37</ele>
        <time>2019-02-12T12:19:16Z</time>
      </trkpt>
      <trkpt lat="49.6256" lon="4.98582">
        <ele>257.29</ele>
        <time>2019-02-12T12:19:35Z</time>
      </trkpt>
      <trkpt lat="49.62556" lon="4.98583">
        <ele>258.73</ele>
        <time>2019-02-12T12:19:52Z</time>
      </trkpt>
      <trkpt lat="49.62551" lon="4.98577">
        <ele>258.73</ele>
        <time>2019-02-12T12:20:05Z</time>
      </trkpt>
      <trkpt lat="49.62549" lon="4.98573">
        <ele>259.21</ele>
        <time>2019-02-12T12:20:20Z</time>
      </trkpt>
      <trkpt lat="49.62547" lon="4.98569">
        <ele>258.73</ele>
        <time>2019-02-12T12:20:34Z</time>
      </trkpt>
      <trkpt lat="49.62543" lon="4.98565">
        <ele>258.73</ele>
        <time>2019-02-12T12:20:53Z</time>
      </trkpt>
      <trkpt lat="49.62529" lon="4.98564">
        <ele>256.33</ele>
        <time>2019-02-12T12:21:08Z</time>
      </trkpt>
      <trkpt lat="49.62517" lon="4.98564">
        <ele>256.33</ele>
        <time>2019-02-12T12:21:20Z</time>
      </trkpt>
      <trkpt lat="49.62502" lon="4.98556">
        <ele>259.69</ele>
        <time>2019-02-12T12:21:35Z</time>
      </trkpt>
      <trkpt lat="49.62488" lon="4.98549">
        <ele>260.65</ele>
        <time>2019-02-12T12:21:50Z</time>
      </trkpt>
      <trkpt lat="49.6248" lon="4.98539">
        <ele>261.14</ele>
        <time>2019-02-12T12:22:02Z</time>
      </trkpt>
      <trkpt lat="49.62467" lon="4.98531">
        <ele>262.1</ele>
        <time>2019-02-12T12:22:17Z</time>
      </trkpt>
      <trkpt lat="49.62453" lon="4.9852">
        <ele>258.73</ele>
        <time>2019-02-12T12:22:33Z</time>
      </trkpt>
      <trkpt lat="49.6244" lon="4.98508">
        <ele>257.29</ele>
        <time>2019-02-12T12:22:49Z</time>
      </trkpt>
      <trkpt lat="49.62422" lon="4.98497">
        <ele>260.17</ele>
        <time>2019-02-12T12:23:04Z</time>
      </trkpt>
      <trkpt lat="49.6241" lon="4.98488">
        <ele>261.14</ele>
        <time>2019-02-12T12:23:15Z</time>
      </trkpt>
      <trkpt lat="49.62393" lon="4.98476">
        <ele>259.69</ele>
        <time>2019-02-12T12:23:33Z</time>
      </trkpt>
      <trkpt lat="49.62381" lon="4.98468">
        <ele>260.17</ele>
        <time>2019-02-12T12:23:46Z</time>
      </trkpt>
      <trkpt lat="49.62365" lon="4.98458">
        <ele>264.5</ele>
        <time>2019-02-12T12:24:01Z</time>
      </trkpt>
      <trkpt lat="49.62348" lon="4.98449">
        <ele>265.94</ele>
        <time>2019-02-12T12:24:18Z</time>
      </trkpt>
      <trkpt lat="49.62336" lon="4.98439">
        <ele>266.9</ele>
        <time>2019-02-12T12:24:33Z</time>
      </trkpt>
      <trkpt lat="49.62326" lon="4.9843">
        <ele>267.38</ele>
        <time>2019-02-12T12:24:47Z</time>
      </trkpt>
      <trkpt lat="49.62315" lon="4.98417">
        <ele>266.9</ele>
        <time>2019-02-12T12:25:02Z</time>
      </trkpt>
      <trkpt lat="49.62304" lon="4.98403">
        <ele>266.42</ele>
        <time>2019-02-12T12:25:16Z</time>
      </trkpt>
      <trkpt lat="49.62292" lon="4.98386">
        <ele>264.98</ele>
        <time>2019-02-12T12:25:31Z</time>
      </trkpt>
      <trkpt lat="49.62283" lon="4.98369">
        <ele>264.5</ele>
        <time>2019-02-12T12:25:46Z</time>
      </trkpt>
      <trkpt lat="49.62273" lon="4.98354">
        <ele>264.5</ele>
        <time>2019-02-12T12:26:00Z</time>
      </trkpt>
      <trkpt lat="49.62264" lon="4.98346">
        <ele>262.58</ele>
        <time>2019-02-12T12:26:15Z</time>
      </trkpt>
      <trkpt lat="49.6225" lon="4.98336">
        <ele>259.69</ele>
        <time>2019-02-12T12:26:31Z</time>
      </trkpt>
      <trkpt lat="49.62236" lon="4.98325">
        <ele>258.73</ele>
        <time>2019-02-12T12:26:46Z</time>
      </trkpt>
      <trkpt lat="49.62224" lon="4.98318">
        <ele>260.65</ele>
        <time>2019-02-12T12:26:57Z</time>
      </trkpt>
      <trkpt lat="49.62212" lon="4.98308">
        <ele>260.17</ele>
        <time>2019-02-12T12:27:11Z</time>
      </trkpt>
      <trkpt lat="49.62198" lon="4.98299">
        <ele>259.69</ele>
        <time>2019-02-12T12:27:24Z</time>
      </trkpt>
      <trkpt lat="49.62185" lon="4.98294">
        <ele>260.65</ele>
        <time>2019-02-12T12:27:38Z</time>
      </trkpt>
      <trkpt lat="49.62169" lon="4.98285">
        <ele>263.06</ele>
        <time>2019-02-12T12:27:54Z</time>
      </trkpt>
      <trkpt lat="49.62149" lon="4.98275">
        <ele>270.27</ele>
        <time>2019-02-12T12:28:12Z</time>
      </trkpt>
      <trkpt lat="49.62137" lon="4.98264">
        <ele>274.11</ele>
        <time>2019-02-12T12:28:26Z</time>
      </trkpt>
      <trkpt lat="49.62122" lon="4.98253">
        <ele>275.56</ele>
        <time>2019-02-12T12:28:39Z</time>
      </trkpt>
      <trkpt lat="49.62111" lon="4.98244">
        <ele>277</ele>
        <time>2019-02-12T12:28:53Z</time>
      </trkpt>
      <trkpt lat="49.62096" lon="4.98233">
        <ele>277.48</ele>
        <time>2019-02-12T12:29:07Z</time>
      </trkpt>
      <trkpt lat="49.62079" lon="4.98225">
        <ele>277.96</ele>
        <time>2019-02-12T12:29:21Z</time>
      </trkpt>
      <trkpt lat="49.62066" lon="4.9822">
        <ele>279.4</ele>
        <time>2019-02-12T12:29:31Z</time>
      </trkpt>
      <trkpt lat="49.62048" lon="4.98215">
        <ele>277</ele>
        <time>2019-02-12T12:29:47Z</time>
      </trkpt>
      <trkpt lat="49.62034" lon="4.98211">
        <ele>274.11</ele>
        <time>2019-02-12T12:30:00Z</time>
      </trkpt>
      <trkpt lat="49.62022" lon="4.98205">
        <ele>274.59</ele>
        <time>2019-02-12T12:30:11Z</time>
      </trkpt>
      <trkpt lat="49.62012" lon="4.98202">
        <ele>275.56</ele>
        <time>2019-02-12T12:30:20Z</time>
      </trkpt>
      <trkpt lat="49.62005" lon="4.982">
        <ele>277</ele>
        <time>2019-02-12T12:30:27Z</time>
      </trkpt>
      <trkpt lat="49.61995" lon="4.98194">
        <ele>278.44</ele>
        <time>2019-02-12T12:30:37Z</time>
      </trkpt>
      <trkpt lat="49.61983" lon="4.98189">
        <ele>279.88</ele>
        <time>2019-02-12T12:30:49Z</time>
      </trkpt>
      <trkpt lat="49.6197" lon="4.98182">
        <ele>283.25</ele>
        <time>2019-02-12T12:31:02Z</time>
      </trkpt>
      <trkpt lat="49.61958" lon="4.98175">
        <ele>287.09</ele>
        <time>2019-02-12T12:31:15Z</time>
      </trkpt>
      <trkpt lat="49.61948" lon="4.9817">
        <ele>288.05</ele>
        <time>2019-02-12T12:31:28Z</time>
      </trkpt>
      <trkpt lat="49.61935" lon="4.98163">
        <ele>287.09</ele>
        <time>2019-02-12T12:31:41Z</time>
      </trkpt>
      <trkpt lat="49.6192" lon="4.98159">
        <ele>287.09</ele>
        <time>2019-02-12T12:31:54Z</time>
      </trkpt>
      <trkpt lat="49.61907" lon="4.98155">
        <ele>289.01</ele>
        <time>2019-02-12T12:32:07Z</time>
      </trkpt>
      <trkpt lat="49.61889" lon="4.98152">
        <ele>291.9</ele>
        <time>2019-02-12T12:32:22Z</time>
      </trkpt>
      <trkpt lat="49.61876" lon="4.9816">
        <ele>289.01</ele>
        <time>2019-02-12T12:32:37Z</time>
      </trkpt>
      <trkpt lat="49.61859" lon="4.98167">
        <ele>290.94</ele>
        <time>2019-02-12T12:32:53Z</time>
      </trkpt>
      <trkpt lat="49.61845" lon="4.98178">
        <ele>291.42</ele>
        <time>2019-02-12T12:33:07Z</time>
      </trkpt>
      <trkpt lat="49.61833" lon="4.9818">
        <ele>291.9</ele>
        <time>2019-02-12T12:33:22Z</time>
      </trkpt>
      <trkpt lat="49.61831" lon="4.98174">
        <ele>292.38</ele>
        <time>2019-02-12T12:33:36Z</time>
      </trkpt>
      <trkpt lat="49.6183" lon="4.98175">
        <ele>292.38</ele>
        <time>2019-02-12T12:33:55Z</time>
      </trkpt>
      <trkpt lat="49.6183" lon="4.98172">
        <ele>292.38</ele>
        <time>2019-02-12T12:34:13Z</time>
      </trkpt>
      <trkpt lat="49.61838" lon="4.9815">
        <ele>291.42</ele>
        <time>2019-02-12T12:34:28Z</time>
      </trkpt>
      <trkpt lat="49.61842" lon="4.98143">
        <ele>292.38</ele>
        <time>2019-02-12T12:34:34Z</time>
      </trkpt>
      <trkpt lat="49.61843" lon="4.9814">
        <ele>292.38</ele>
        <time>2019-02-12T12:34:36Z</time>
      </trkpt>
      <trkpt lat="49.61849" lon="4.98126">
        <ele>290.94</ele>
        <time>2019-02-12T12:34:46Z</time>
      </trkpt>
      <trkpt lat="49.61855" lon="4.98116">
        <ele>289.49</ele>
        <time>2019-02-12T12:34:55Z</time>
      </trkpt>
      <trkpt lat="49.61866" lon="4.98091">
        <ele>289.97</ele>
        <time>2019-02-12T12:35:11Z</time>
      </trkpt>
      <trkpt lat="49.61874" lon="4.98069">
        <ele>289.01</ele>
        <time>2019-02-12T12:35:27Z</time>
      </trkpt>
      <trkpt lat="49.61882" lon="4.98046">
        <ele>287.57</ele>
        <time>2019-02-12T12:35:43Z</time>
      </trkpt>
      <trkpt lat="49.61893" lon="4.98024">
        <ele>287.09</ele>
        <time>2019-02-12T12:35:59Z</time>
      </trkpt>
      <trkpt lat="49.61905" lon="4.98001">
        <ele>285.65</ele>
        <time>2019-02-12T12:36:15Z</time>
      </trkpt>
      <trkpt lat="49.61918" lon="4.97978">
        <ele>284.69</ele>
        <time>2019-02-12T12:36:34Z</time>
      </trkpt>
      <trkpt lat="49.6193" lon="4.97958">
        <ele>283.25</ele>
        <time>2019-02-12T12:36:52Z</time>
      </trkpt>
      <trkpt lat="49.61944" lon="4.97938">
        <ele>282.28</ele>
        <time>2019-02-12T12:37:10Z</time>
      </trkpt>
      <trkpt lat="49.61958" lon="4.97917">
        <ele>282.28</ele>
        <time>2019-02-12T12:37:28Z</time>
      </trkpt>
      <trkpt lat="49.61974" lon="4.9789">
        <ele>282.77</ele>
        <time>2019-02-12T12:37:49Z</time>
      </trkpt>
      <trkpt lat="49.61987" lon="4.97864">
        <ele>283.73</ele>
        <time>2019-02-12T12:38:09Z</time>
      </trkpt>
      <trkpt lat="49.61997" lon="4.97831">
        <ele>284.21</ele>
        <time>2019-02-12T12:38:30Z</time>
      </trkpt>
      <trkpt lat="49.61998" lon="4.97827">
        <ele>283.73</ele>
        <time>2019-02-12T12:38:33Z</time>
      </trkpt>
      <trkpt lat="49.62004" lon="4.97798">
        <ele>284.21</ele>
        <time>2019-02-12T12:38:51Z</time>
      </trkpt>
      <trkpt lat="49.62011" lon="4.97768">
        <ele>286.13</ele>
        <time>2019-02-12T12:39:09Z</time>
      </trkpt>
      <trkpt lat="49.62015" lon="4.9774">
        <ele>285.65</ele>
        <time>2019-02-12T12:39:26Z</time>
      </trkpt>
      <trkpt lat="49.62019" lon="4.97713">
        <ele>282.77</ele>
        <time>2019-02-12T12:39:43Z</time>
      </trkpt>
      <trkpt lat="49.62023" lon="4.97687">
        <ele>282.28</ele>
        <time>2019-02-12T12:39:59Z</time>
      </trkpt>
      <trkpt lat="49.62027" lon="4.97656">
        <ele>282.28</ele>
        <time>2019-02-12T12:40:18Z</time>
      </trkpt>
      <trkpt lat="49.6203" lon="4.9763">
        <ele>281.32</ele>
        <time>2019-02-12T12:40:34Z</time>
      </trkpt>
      <trkpt lat="49.6203" lon="4.97612">
        <ele>280.36</ele>
        <time>2019-02-12T12:40:47Z</time>
      </trkpt>
      <trkpt lat="49.62032" lon="4.97576">
        <ele>279.4</ele>
        <time>2019-02-12T12:41:08Z</time>
      </trkpt>
      <trkpt lat="49.62034" lon="4.97548">
        <ele>278.44</ele>
        <time>2019-02-12T12:41:26Z</time>
      </trkpt>
      <trkpt lat="49.62037" lon="4.97519">
        <ele>278.44</ele>
        <time>2019-02-12T12:41:43Z</time>
      </trkpt>
      <trkpt lat="49.62037" lon="4.97509">
        <ele>277.96</ele>
        <time>2019-02-12T12:41:49Z</time>
      </trkpt>
      <trkpt lat="49.62018" lon="4.97503">
        <ele>277.48</ele>
        <time>2019-02-12T12:42:07Z</time>
      </trkpt>
      <trkpt lat="49.62008" lon="4.97503">
        <ele>277</ele>
        <time>2019-02-12T12:42:16Z</time>
      </trkpt>
      <trkpt lat="49.61991" lon="4.97502">
        <ele>276.52</ele>
        <time>2019-02-12T12:42:32Z</time>
      </trkpt>
      <trkpt lat="49.61968" lon="4.97502">
        <ele>276.04</ele>
        <time>2019-02-12T12:42:54Z</time>
      </trkpt>
      <trkpt lat="49.61947" lon="4.97502">
        <ele>275.07</ele>
        <time>2019-02-12T12:43:14Z</time>
      </trkpt>
      <trkpt lat="49.61928" lon="4.97504">
        <ele>274.59</ele>
        <time>2019-02-12T12:43:32Z</time>
      </trkpt>
      <trkpt lat="49.61915" lon="4.97504">
        <ele>273.63</ele>
        <time>2019-02-12T12:43:45Z</time>
      </trkpt>
      <trkpt lat="49.61908" lon="4.97504">
        <ele>273.63</ele>
        <time>2019-02-12T12:43:52Z</time>
      </trkpt>
      <trkpt lat="49.61888" lon="4.975">
        <ele>271.71</ele>
        <time>2019-02-12T12:44:12Z</time>
      </trkpt>
      <trkpt lat="49.61884" lon="4.97497">
        <ele>271.23</ele>
        <time>2019-02-12T12:44:16Z</time>
      </trkpt>
      <trkpt lat="49.61869" lon="4.97476">
        <ele>267.38</ele>
        <time>2019-02-12T12:44:34Z</time>
      </trkpt>
      <trkpt lat="49.61854" lon="4.97453">
        <ele>266.42</ele>
        <time>2019-02-12T12:44:53Z</time>
      </trkpt>
      <trkpt lat="49.61838" lon="4.97434">
        <ele>265.46</ele>
        <time>2019-02-12T12:45:12Z</time>
      </trkpt>
      <trkpt lat="49.61836" lon="4.97428">
        <ele>264.98</ele>
        <time>2019-02-12T12:45:16Z</time>
      </trkpt>
      <trkpt lat="49.61821" lon="4.97411">
        <ele>264.5</ele>
        <time>2019-02-12T12:45:35Z</time>
      </trkpt>
      <trkpt lat="49.61819" lon="4.97408">
        <ele>264.02</ele>
        <time>2019-02-12T12:45:38Z</time>
      </trkpt>
      <trkpt lat="49.61812" lon="4.97381">
        <ele>263.54</ele>
        <time>2019-02-12T12:45:56Z</time>
      </trkpt>
      <trkpt lat="49.61809" lon="4.97364">
        <ele>263.54</ele>
        <time>2019-02-12T12:46:08Z</time>
      </trkpt>
      <trkpt lat="49.61805" lon="4.9734">
        <ele>261.14</ele>
        <time>2019-02-12T12:46:24Z</time>
      </trkpt>
      <trkpt lat="49.61799" lon="4.97315">
        <ele>261.14</ele>
        <time>2019-02-12T12:46:42Z</time>
      </trkpt>
      <trkpt lat="49.61793" lon="4.97291">
        <ele>259.21</ele>
        <time>2019-02-12T12:46:58Z</time>
      </trkpt>
      <trkpt lat="49.61787" lon="4.9727">
        <ele>257.77</ele>
        <time>2019-02-12T12:47:13Z</time>
      </trkpt>
      <trkpt lat="49.6178" lon="4.97247">
        <ele>256.81</ele>
        <time>2019-02-12T12:47:28Z</time>
      </trkpt>
      <trkpt lat="49.61781" lon="4.97243">
        <ele>255.37</ele>
        <time>2019-02-12T12:47:41Z</time>
      </trkpt>
      <trkpt lat="49.61781" lon="4.97243">
        <ele>254.89</ele>
        <time>2019-02-12T12:48:02Z</time>
      </trkpt>
      <trkpt lat="49.6178" lon="4.97242">
        <ele>253.44</ele>
        <time>2019-02-12T12:48:26Z</time>
      </trkpt>
      <trkpt lat="49.6178" lon="4.97241">
        <ele>254.41</ele>
        <time>2019-02-12T12:48:59Z</time>
      </trkpt>
      <trkpt lat="49.6178" lon="4.97241">
        <ele>254.89</ele>
        <time>2019-02-12T12:49:19Z</time>
      </trkpt>
      <trkpt lat="49.6178" lon="4.97241">
        <ele>254.41</ele>
        <time>2019-02-12T12:49:38Z</time>
      </trkpt>
      <trkpt lat="49.61781" lon="4.97241">
        <ele>254.41</ele>
        <time>2019-02-12T12:50:05Z</time>
      </trkpt>
      <trkpt lat="49.61781" lon="4.97243">
        <ele>253.44</ele>
        <time>2019-02-12T12:50:29Z</time>
      </trkpt>
      <trkpt lat="49.61781" lon="4.97242">
        <ele>252</ele>
        <time>2019-02-12T12:50:56Z</time>
      </trkpt>
      <trkpt lat="49.6178" lon="4.97244">
        <ele>252</ele>
        <time>2019-02-12T12:51:20Z</time>
      </trkpt>
      <trkpt lat="49.61779" lon="4.97245">
        <ele>251.04</ele>
        <time>2019-02-12T12:51:36Z</time>
      </trkpt>
      <trkpt lat="49.61774" lon="4.97235">
        <ele>251.04</ele>
        <time>2019-02-12T12:51:51Z</time>
      </trkpt>
      <trkpt lat="49.61769" lon="4.97219">
        <ele>249.6</ele>
        <time>2019-02-12T12:52:02Z</time>
      </trkpt>
      <trkpt lat="49.61762" lon="4.97194">
        <ele>248.64</ele>
        <time>2019-02-12T12:52:18Z</time>
      </trkpt>
      <trkpt lat="49.61756" lon="4.97165">
        <ele>250.08</ele>
        <time>2019-02-12T12:52:35Z</time>
      </trkpt>
      <trkpt lat="49.61754" lon="4.97155">
        <ele>251.04</ele>
        <time>2019-02-12T12:52:40Z</time>
      </trkpt>
      <trkpt lat="49.61749" lon="4.97154">
        <ele>252</ele>
        <time>2019-02-12T12:52:45Z</time>
      </trkpt>
      <trkpt lat="49.61735" lon="4.97172">
        <ele>250.56</ele>
        <time>2019-02-12T12:52:59Z</time>
      </trkpt>
      <trkpt lat="49.61718" lon="4.97191">
        <ele>250.56</ele>
        <time>2019-02-12T12:53:17Z</time>
      </trkpt>
      <trkpt lat="49.617" lon="4.97214">
        <ele>252.48</ele>
        <time>2019-02-12T12:53:36Z</time>
      </trkpt>
      <trkpt lat="49.61689" lon="4.97239">
        <ele>252</ele>
        <time>2019-02-12T12:53:54Z</time>
      </trkpt>
      <trkpt lat="49.61677" lon="4.97261">
        <ele>254.41</ele>
        <time>2019-02-12T12:54:10Z</time>
      </trkpt>
      <trkpt lat="49.61661" lon="4.97285">
        <ele>254.89</ele>
        <time>2019-02-12T12:54:29Z</time>
      </trkpt>
      <trkpt lat="49.61645" lon="4.97305">
        <ele>254.89</ele>
        <time>2019-02-12T12:54:48Z</time>
      </trkpt>
      <trkpt lat="49.6163" lon="4.97324">
        <ele>255.37</ele>
        <time>2019-02-12T12:55:05Z</time>
      </trkpt>
      <trkpt lat="49.61613" lon="4.97346">
        <ele>255.85</ele>
        <time>2019-02-12T12:55:25Z</time>
      </trkpt>
      <trkpt lat="49.61598" lon="4.97369">
        <ele>255.85</ele>
        <time>2019-02-12T12:55:44Z</time>
      </trkpt>
      <trkpt lat="49.61589" lon="4.97383">
        <ele>257.29</ele>
        <time>2019-02-12T12:55:55Z</time>
      </trkpt>
      <trkpt lat="49.61586" lon="4.97387">
        <ele>257.77</ele>
        <time>2019-02-12T12:55:59Z</time>
      </trkpt>
      <trkpt lat="49.61572" lon="4.97407">
        <ele>256.33</ele>
        <time>2019-02-12T12:56:17Z</time>
      </trkpt>
      <trkpt lat="49.61557" lon="4.97429">
        <ele>256.33</ele>
        <time>2019-02-12T12:56:35Z</time>
      </trkpt>
      <trkpt lat="49.61543" lon="4.97451">
        <ele>257.77</ele>
        <time>2019-02-12T12:56:53Z</time>
      </trkpt>
      <trkpt lat="49.61541" lon="4.97454">
        <ele>258.25</ele>
        <time>2019-02-12T12:56:56Z</time>
      </trkpt>
      <trkpt lat="49.61527" lon="4.97476">
        <ele>259.21</ele>
        <time>2019-02-12T12:57:13Z</time>
      </trkpt>
      <trkpt lat="49.61514" lon="4.97498">
        <ele>261.14</ele>
        <time>2019-02-12T12:57:31Z</time>
      </trkpt>
      <trkpt lat="49.61503" lon="4.97515">
        <ele>263.54</ele>
        <time>2019-02-12T12:57:46Z</time>
      </trkpt>
      <trkpt lat="49.61496" lon="4.97522">
        <ele>265.46</ele>
        <time>2019-02-12T12:58:01Z</time>
      </trkpt>
      <trkpt lat="49.61486" lon="4.97536">
        <ele>266.9</ele>
        <time>2019-02-12T12:58:14Z</time>
      </trkpt>
      <trkpt lat="49.61471" lon="4.97555">
        <ele>267.38</ele>
        <time>2019-02-12T12:58:32Z</time>
      </trkpt>
      <trkpt lat="49.61456" lon="4.97572">
        <ele>268.83</ele>
        <time>2019-02-12T12:58:49Z</time>
      </trkpt>
      <trkpt lat="49.61443" lon="4.97591">
        <ele>270.27</ele>
        <time>2019-02-12T12:59:06Z</time>
      </trkpt>
      <trkpt lat="49.6143" lon="4.97609">
        <ele>271.71</ele>
        <time>2019-02-12T12:59:22Z</time>
      </trkpt>
      <trkpt lat="49.61416" lon="4.97627">
        <ele>273.63</ele>
        <time>2019-02-12T12:59:38Z</time>
      </trkpt>
      <trkpt lat="49.61401" lon="4.97645">
        <ele>275.56</ele>
        <time>2019-02-12T12:59:55Z</time>
      </trkpt>
      <trkpt lat="49.61389" lon="4.97659">
        <ele>276.52</ele>
        <time>2019-02-12T13:00:09Z</time>
      </trkpt>
      <trkpt lat="49.61373" lon="4.97671">
        <ele>278.44</ele>
        <time>2019-02-12T13:00:26Z</time>
      </trkpt>
      <trkpt lat="49.61372" lon="4.97672">
        <ele>278.44</ele>
        <time>2019-02-12T13:00:27Z</time>
      </trkpt>
      <trkpt lat="49.61361" lon="4.97684">
        <ele>279.88</ele>
        <time>2019-02-12T13:00:43Z</time>
      </trkpt>
      <trkpt lat="49.61356" lon="4.97687">
        <ele>281.32</ele>
        <time>2019-02-12T13:00:54Z</time>
      </trkpt>
      <trkpt lat="49.6134" lon="4.97703">
        <ele>282.77</ele>
        <time>2019-02-12T13:01:12Z</time>
      </trkpt>
      <trkpt lat="49.61328" lon="4.97714">
        <ele>284.21</ele>
        <time>2019-02-12T13:01:25Z</time>
      </trkpt>
      <trkpt lat="49.61311" lon="4.97726">
        <ele>286.13</ele>
        <time>2019-02-12T13:01:42Z</time>
      </trkpt>
      <trkpt lat="49.61299" lon="4.97737">
        <ele>287.09</ele>
        <time>2019-02-12T13:01:55Z</time>
      </trkpt>
      <trkpt lat="49.61284" lon="4.9775">
        <ele>288.53</ele>
        <time>2019-02-12T13:02:11Z</time>
      </trkpt>
      <trkpt lat="49.6127" lon="4.97761">
        <ele>290.94</ele>
        <time>2019-02-12T13:02:25Z</time>
      </trkpt>
      <trkpt lat="49.61258" lon="4.97771">
        <ele>291.9</ele>
        <time>2019-02-12T13:02:39Z</time>
      </trkpt>
      <trkpt lat="49.61241" lon="4.97779">
        <ele>292.86</ele>
        <time>2019-02-12T13:02:55Z</time>
      </trkpt>
      <trkpt lat="49.61225" lon="4.97781">
        <ele>293.82</ele>
        <time>2019-02-12T13:03:10Z</time>
      </trkpt>
      <trkpt lat="49.61212" lon="4.97791">
        <ele>293.34</ele>
        <time>2019-02-12T13:03:24Z</time>
      </trkpt>
      <trkpt lat="49.6121" lon="4.97793">
        <ele>296.22</ele>
        <time>2019-02-12T13:03:42Z</time>
      </trkpt>
      <trkpt lat="49.6121" lon="4.97791">
        <ele>295.74</ele>
        <time>2019-02-12T13:04:04Z</time>
      </trkpt>
      <trkpt lat="49.612" lon="4.97804">
        <ele>297.18</ele>
        <time>2019-02-12T13:04:19Z</time>
      </trkpt>
      <trkpt lat="49.61186" lon="4.9782">
        <ele>299.11</ele>
        <time>2019-02-12T13:04:35Z</time>
      </trkpt>
      <trkpt lat="49.61173" lon="4.97836">
        <ele>300.07</ele>
        <time>2019-02-12T13:04:51Z</time>
      </trkpt>
      <trkpt lat="49.61159" lon="4.97856">
        <ele>302.47</ele>
        <time>2019-02-12T13:05:07Z</time>
      </trkpt>
      <trkpt lat="49.61141" lon="4.97875">
        <ele>301.03</ele>
        <time>2019-02-12T13:05:25Z</time>
      </trkpt>
      <trkpt lat="49.61131" lon="4.97891">
        <ele>302.47</ele>
        <time>2019-02-12T13:05:39Z</time>
      </trkpt>
      <trkpt lat="49.61119" lon="4.9791">
        <ele>302.47</ele>
        <time>2019-02-12T13:05:55Z</time>
      </trkpt>
      <trkpt lat="49.61108" lon="4.97928">
        <ele>302.47</ele>
        <time>2019-02-12T13:06:09Z</time>
      </trkpt>
      <trkpt lat="49.61096" lon="4.97947">
        <ele>302.95</ele>
        <time>2019-02-12T13:06:24Z</time>
      </trkpt>
      <trkpt lat="49.61086" lon="4.97966">
        <ele>305.36</ele>
        <time>2019-02-12T13:06:40Z</time>
      </trkpt>
      <trkpt lat="49.61071" lon="4.97987">
        <ele>304.88</ele>
        <time>2019-02-12T13:06:58Z</time>
      </trkpt>
      <trkpt lat="49.61059" lon="4.98004">
        <ele>307.28</ele>
        <time>2019-02-12T13:07:13Z</time>
      </trkpt>
      <trkpt lat="49.61046" lon="4.98024">
        <ele>308.24</ele>
        <time>2019-02-12T13:07:29Z</time>
      </trkpt>
      <trkpt lat="49.61035" lon="4.9804">
        <ele>307.28</ele>
        <time>2019-02-12T13:07:44Z</time>
      </trkpt>
      <trkpt lat="49.61025" lon="4.98061">
        <ele>308.24</ele>
        <time>2019-02-12T13:08:00Z</time>
      </trkpt>
      <trkpt lat="49.61018" lon="4.98073">
        <ele>307.28</ele>
        <time>2019-02-12T13:08:13Z</time>
      </trkpt>
      <trkpt lat="49.61004" lon="4.98093">
        <ele>308.72</ele>
        <time>2019-02-12T13:08:29Z</time>
      </trkpt>
      <trkpt lat="49.60993" lon="4.98114">
        <ele>310.16</ele>
        <time>2019-02-12T13:08:43Z</time>
      </trkpt>
      <trkpt lat="49.60982" lon="4.98135">
        <ele>311.12</ele>
        <time>2019-02-12T13:08:59Z</time>
      </trkpt>
      <trkpt lat="49.60972" lon="4.98151">
        <ele>311.12</ele>
        <time>2019-02-12T13:09:14Z</time>
      </trkpt>
      <trkpt lat="49.60961" lon="4.9817">
        <ele>309.2</ele>
        <time>2019-02-12T13:09:30Z</time>
      </trkpt>
      <trkpt lat="49.60948" lon="4.98192">
        <ele>308.24</ele>
        <time>2019-02-12T13:09:47Z</time>
      </trkpt>
      <trkpt lat="49.60936" lon="4.98212">
        <ele>307.76</ele>
        <time>2019-02-12T13:10:03Z</time>
      </trkpt>
      <trkpt lat="49.60932" lon="4.98229">
        <ele>306.8</ele>
        <time>2019-02-12T13:10:20Z</time>
      </trkpt>
      <trkpt lat="49.60922" lon="4.98255">
        <ele>302.95</ele>
        <time>2019-02-12T13:10:35Z</time>
      </trkpt>
      <trkpt lat="49.60914" lon="4.98279">
        <ele>300.07</ele>
        <time>2019-02-12T13:10:51Z</time>
      </trkpt>
      <trkpt lat="49.60909" lon="4.98293">
        <ele>300.07</ele>
        <time>2019-02-12T13:11:01Z</time>
      </trkpt>
      <trkpt lat="49.60901" lon="4.98316">
        <ele>298.15</ele>
        <time>2019-02-12T13:11:15Z</time>
      </trkpt>
      <trkpt lat="49.60893" lon="4.98339">
        <ele>297.18</ele>
        <time>2019-02-12T13:11:30Z</time>
      </trkpt>
      <trkpt lat="49.60887" lon="4.98357">
        <ele>298.63</ele>
        <time>2019-02-12T13:11:48Z</time>
      </trkpt>
      <trkpt lat="49.60881" lon="4.98367">
        <ele>298.63</ele>
        <time>2019-02-12T13:12:01Z</time>
      </trkpt>
      <trkpt lat="49.60874" lon="4.98386">
        <ele>298.15</ele>
        <time>2019-02-12T13:12:14Z</time>
      </trkpt>
      <trkpt lat="49.60866" lon="4.98406">
        <ele>297.18</ele>
        <time>2019-02-12T13:12:30Z</time>
      </trkpt>
      <trkpt lat="49.60858" lon="4.9843">
        <ele>296.7</ele>
        <time>2019-02-12T13:12:47Z</time>
      </trkpt>
      <trkpt lat="49.6085" lon="4.98455">
        <ele>294.78</ele>
        <time>2019-02-12T13:13:04Z</time>
      </trkpt>
      <trkpt lat="49.60842" lon="4.98478">
        <ele>298.63</ele>
        <time>2019-02-12T13:13:20Z</time>
      </trkpt>
      <trkpt lat="49.6083" lon="4.98498">
        <ele>302.95</ele>
        <time>2019-02-12T13:13:33Z</time>
      </trkpt>
      <trkpt lat="49.6082" lon="4.98518">
        <ele>303.91</ele>
        <time>2019-02-12T13:13:47Z</time>
      </trkpt>
      <trkpt lat="49.60811" lon="4.98539">
        <ele>301.99</ele>
        <time>2019-02-12T13:14:03Z</time>
      </trkpt>
      <trkpt lat="49.60795" lon="4.98569">
        <ele>303.91</ele>
        <time>2019-02-12T13:14:20Z</time>
      </trkpt>
      <trkpt lat="49.60784" lon="4.98589">
        <ele>303.91</ele>
        <time>2019-02-12T13:14:36Z</time>
      </trkpt>
      <trkpt lat="49.60774" lon="4.98611">
        <ele>308.24</ele>
        <time>2019-02-12T13:14:51Z</time>
      </trkpt>
      <trkpt lat="49.60764" lon="4.98631">
        <ele>312.09</ele>
        <time>2019-02-12T13:15:07Z</time>
      </trkpt>
      <trkpt lat="49.60752" lon="4.98649">
        <ele>311.6</ele>
        <time>2019-02-12T13:15:22Z</time>
      </trkpt>
      <trkpt lat="49.60743" lon="4.98665">
        <ele>312.09</ele>
        <time>2019-02-12T13:15:34Z</time>
      </trkpt>
      <trkpt lat="49.60736" lon="4.98679">
        <ele>311.6</ele>
        <time>2019-02-12T13:15:44Z</time>
      </trkpt>
      <trkpt lat="49.60728" lon="4.98701">
        <ele>308.24</ele>
        <time>2019-02-12T13:15:59Z</time>
      </trkpt>
      <trkpt lat="49.60725" lon="4.98709">
        <ele>307.76</ele>
        <time>2019-02-12T13:16:15Z</time>
      </trkpt>
      <trkpt lat="49.60725" lon="4.98709">
        <ele>307.76</ele>
        <time>2019-02-12T13:16:36Z</time>
      </trkpt>
      <trkpt lat="49.60725" lon="4.98712">
        <ele>307.28</ele>
        <time>2019-02-12T13:17:00Z</time>
      </trkpt>
      <trkpt lat="49.60724" lon="4.98714">
        <ele>306.8</ele>
        <time>2019-02-12T13:17:17Z</time>
      </trkpt>
      <trkpt lat="49.60721" lon="4.98722">
        <ele>305.84</ele>
        <time>2019-02-12T13:17:30Z</time>
      </trkpt>
      <trkpt lat="49.60713" lon="4.98741">
        <ele>306.32</ele>
        <time>2019-02-12T13:17:44Z</time>
      </trkpt>
      <trkpt lat="49.60707" lon="4.98752">
        <ele>306.8</ele>
        <time>2019-02-12T13:17:57Z</time>
      </trkpt>
      <trkpt lat="49.60703" lon="4.9876">
        <ele>305.84</ele>
        <time>2019-02-12T13:18:20Z</time>
      </trkpt>
      <trkpt lat="49.60701" lon="4.98765">
        <ele>307.76</ele>
        <time>2019-02-12T13:18:42Z</time>
      </trkpt>
      <trkpt lat="49.60694" lon="4.98782">
        <ele>307.28</ele>
        <time>2019-02-12T13:18:58Z</time>
      </trkpt>
      <trkpt lat="49.60686" lon="4.98802">
        <ele>305.36</ele>
        <time>2019-02-12T13:19:12Z</time>
      </trkpt>
      <trkpt lat="49.60671" lon="4.98827">
        <ele>303.91</ele>
        <time>2019-02-12T13:19:30Z</time>
      </trkpt>
      <trkpt lat="49.6066" lon="4.9885">
        <ele>304.88</ele>
        <time>2019-02-12T13:19:46Z</time>
      </trkpt>
      <trkpt lat="49.60646" lon="4.98878">
        <ele>304.88</ele>
        <time>2019-02-12T13:20:03Z</time>
      </trkpt>
      <trkpt lat="49.60634" lon="4.98899">
        <ele>305.36</ele>
        <time>2019-02-12T13:20:18Z</time>
      </trkpt>
      <trkpt lat="49.60618" lon="4.98914">
        <ele>307.76</ele>
        <time>2019-02-12T13:20:31Z</time>
      </trkpt>
      <trkpt lat="49.60599" lon="4.98916">
        <ele>307.28</ele>
        <time>2019-02-12T13:20:46Z</time>
      </trkpt>
      <trkpt lat="49.60575" lon="4.98913">
        <ele>311.12</ele>
        <time>2019-02-12T13:21:04Z</time>
      </trkpt>
      <trkpt lat="49.60566" lon="4.98913">
        <ele>309.68</ele>
        <time>2019-02-12T13:21:12Z</time>
      </trkpt>
      <trkpt lat="49.60545" lon="4.98906">
        <ele>310.16</ele>
        <time>2019-02-12T13:21:30Z</time>
      </trkpt>
      <trkpt lat="49.60523" lon="4.98902">
        <ele>309.68</ele>
        <time>2019-02-12T13:21:49Z</time>
      </trkpt>
      <trkpt lat="49.60506" lon="4.98895">
        <ele>308.24</ele>
        <time>2019-02-12T13:22:06Z</time>
      </trkpt>
      <trkpt lat="49.60486" lon="4.98881">
        <ele>308.24</ele>
        <time>2019-02-12T13:22:24Z</time>
      </trkpt>
      <trkpt lat="49.60468" lon="4.98869">
        <ele>306.8</ele>
        <time>2019-02-12T13:22:40Z</time>
      </trkpt>
      <trkpt lat="49.60448" lon="4.98855">
        <ele>305.36</ele>
        <time>2019-02-12T13:22:59Z</time>
      </trkpt>
      <trkpt lat="49.60439" lon="4.98851">
        <ele>305.36</ele>
        <time>2019-02-12T13:23:07Z</time>
      </trkpt>
      <trkpt lat="49.60421" lon="4.9884">
        <ele>306.8</ele>
        <time>2019-02-12T13:23:24Z</time>
      </trkpt>
      <trkpt lat="49.60403" lon="4.98828">
        <ele>306.32</ele>
        <time>2019-02-12T13:23:39Z</time>
      </trkpt>
      <trkpt lat="49.60397" lon="4.98827">
        <ele>306.32</ele>
        <time>2019-02-12T13:23:45Z</time>
      </trkpt>
      <trkpt lat="49.60393" lon="4.98827">
        <ele>306.32</ele>
        <time>2019-02-12T13:23:49Z</time>
      </trkpt>
      <trkpt lat="49.60376" lon="4.98822">
        <ele>304.39</ele>
        <time>2019-02-12T13:24:05Z</time>
      </trkpt>
      <trkpt lat="49.60358" lon="4.98808">
        <ele>302.95</ele>
        <time>2019-02-12T13:24:22Z</time>
      </trkpt>
      <trkpt lat="49.60344" lon="4.98798">
        <ele>300.55</ele>
        <time>2019-02-12T13:24:37Z</time>
      </trkpt>
      <trkpt lat="49.60328" lon="4.98791">
        <ele>300.55</ele>
        <time>2019-02-12T13:24:53Z</time>
      </trkpt>
      <trkpt lat="49.60311" lon="4.98783">
        <ele>300.07</ele>
        <time>2019-02-12T13:25:08Z</time>
      </trkpt>
      <trkpt lat="49.60293" lon="4.98774">
        <ele>304.39</ele>
        <time>2019-02-12T13:25:25Z</time>
      </trkpt>
      <trkpt lat="49.60275" lon="4.9877">
        <ele>303.91</ele>
        <time>2019-02-12T13:25:43Z</time>
      </trkpt>
      <trkpt lat="49.60258" lon="4.98767">
        <ele>300.55</ele>
        <time>2019-02-12T13:25:59Z</time>
      </trkpt>
      <trkpt lat="49.60237" lon="4.98765">
        <ele>300.07</ele>
        <time>2019-02-12T13:26:16Z</time>
      </trkpt>
      <trkpt lat="49.60222" lon="4.9876">
        <ele>298.63</ele>
        <time>2019-02-12T13:26:30Z</time>
      </trkpt>
      <trkpt lat="49.60205" lon="4.98761">
        <ele>297.18</ele>
        <time>2019-02-12T13:26:47Z</time>
      </trkpt>
      <trkpt lat="49.60189" lon="4.9875">
        <ele>298.63</ele>
        <time>2019-02-12T13:27:04Z</time>
      </trkpt>
      <trkpt lat="49.60187" lon="4.98748">
        <ele>298.63</ele>
        <time>2019-02-12T13:27:07Z</time>
      </trkpt>
      <trkpt lat="49.6017" lon="4.98726">
        <ele>298.63</ele>
        <time>2019-02-12T13:27:26Z</time>
      </trkpt>
      <trkpt lat="49.60157" lon="4.98713">
        <ele>298.15</ele>
        <time>2019-02-12T13:27:40Z</time>
      </trkpt>
      <trkpt lat="49.60144" lon="4.98697">
        <ele>299.59</ele>
        <time>2019-02-12T13:27:56Z</time>
      </trkpt>
      <trkpt lat="49.60128" lon="4.98677">
        <ele>300.55</ele>
        <time>2019-02-12T13:28:14Z</time>
      </trkpt>
      <trkpt lat="49.60116" lon="4.98651">
        <ele>303.43</ele>
        <time>2019-02-12T13:28:30Z</time>
      </trkpt>
      <trkpt lat="49.60103" lon="4.98628">
        <ele>306.32</ele>
        <time>2019-02-12T13:28:47Z</time>
      </trkpt>
      <trkpt lat="49.6009" lon="4.98612">
        <ele>308.72</ele>
        <time>2019-02-12T13:29:02Z</time>
      </trkpt>
      <trkpt lat="49.60076" lon="4.98608">
        <ele>308.72</ele>
        <time>2019-02-12T13:29:16Z</time>
      </trkpt>
      <trkpt lat="49.60066" lon="4.98619">
        <ele>309.2</ele>
        <time>2019-02-12T13:29:31Z</time>
      </trkpt>
      <trkpt lat="49.60062" lon="4.98642">
        <ele>308.72</ele>
        <time>2019-02-12T13:29:46Z</time>
      </trkpt>
      <trkpt lat="49.60058" lon="4.9866">
        <ele>309.2</ele>
        <time>2019-02-12T13:30:00Z</time>
      </trkpt>
      <trkpt lat="49.6005" lon="4.98686">
        <ele>307.28</ele>
        <time>2019-02-12T13:30:16Z</time>
      </trkpt>
      <trkpt lat="49.60037" lon="4.98717">
        <ele>306.32</ele>
        <time>2019-02-12T13:30:34Z</time>
      </trkpt>
      <trkpt lat="49.60031" lon="4.98737">
        <ele>306.32</ele>
        <time>2019-02-12T13:30:49Z</time>
      </trkpt>
      <trkpt lat="49.60019" lon="4.9876">
        <ele>308.24</ele>
        <time>2019-02-12T13:31:06Z</time>
      </trkpt>
      <trkpt lat="49.60006" lon="4.98783">
        <ele>308.24</ele>
        <time>2019-02-12T13:31:21Z</time>
      </trkpt>
      <trkpt lat="49.59997" lon="4.98802">
        <ele>306.8</ele>
        <time>2019-02-12T13:31:35Z</time>
      </trkpt>
      <trkpt lat="49.59986" lon="4.98824">
        <ele>303.91</ele>
        <time>2019-02-12T13:31:53Z</time>
      </trkpt>
      <trkpt lat="49.59976" lon="4.98847">
        <ele>304.39</ele>
        <time>2019-02-12T13:32:08Z</time>
      </trkpt>
      <trkpt lat="49.59968" lon="4.98869">
        <ele>303.91</ele>
        <time>2019-02-12T13:32:23Z</time>
      </trkpt>
      <trkpt lat="49.59959" lon="4.9889">
        <ele>301.99</ele>
        <time>2019-02-12T13:32:40Z</time>
      </trkpt>
      <trkpt lat="49.59943" lon="4.98916">
        <ele>301.51</ele>
        <time>2019-02-12T13:32:58Z</time>
      </trkpt>
      <trkpt lat="49.59928" lon="4.98933">
        <ele>303.43</ele>
        <time>2019-02-12T13:33:12Z</time>
      </trkpt>
      <trkpt lat="49.59913" lon="4.98953">
        <ele>307.76</ele>
        <time>2019-02-12T13:33:28Z</time>
      </trkpt>
      <trkpt lat="49.59901" lon="4.98971">
        <ele>312.57</ele>
        <time>2019-02-12T13:33:42Z</time>
      </trkpt>
      <trkpt lat="49.5989" lon="4.98986">
        <ele>313.53</ele>
        <time>2019-02-12T13:33:59Z</time>
      </trkpt>
      <trkpt lat="49.5988" lon="4.98997">
        <ele>311.6</ele>
        <time>2019-02-12T13:34:16Z</time>
      </trkpt>
      <trkpt lat="49.59861" lon="4.99013">
        <ele>310.16</ele>
        <time>2019-02-12T13:34:32Z</time>
      </trkpt>
      <trkpt lat="49.59847" lon="4.99028">
        <ele>311.6</ele>
        <time>2019-02-12T13:34:47Z</time>
      </trkpt>
      <trkpt lat="49.59827" lon="4.99045">
        <ele>310.64</ele>
        <time>2019-02-12T13:35:03Z</time>
      </trkpt>
      <trkpt lat="49.59813" lon="4.99056">
        <ele>313.53</ele>
        <time>2019-02-12T13:35:16Z</time>
      </trkpt>
      <trkpt lat="49.59797" lon="4.99066">
        <ele>314.97</ele>
        <time>2019-02-12T13:35:31Z</time>
      </trkpt>
      <trkpt lat="49.59782" lon="4.99081">
        <ele>314.97</ele>
        <time>2019-02-12T13:35:47Z</time>
      </trkpt>
      <trkpt lat="49.59765" lon="4.99092">
        <ele>313.05</ele>
        <time>2019-02-12T13:36:02Z</time>
      </trkpt>
      <trkpt lat="49.59749" lon="4.99101">
        <ele>312.09</ele>
        <time>2019-02-12T13:36:19Z</time>
      </trkpt>
      <trkpt lat="49.59726" lon="4.99114">
        <ele>315.45</ele>
        <time>2019-02-12T13:36:36Z</time>
      </trkpt>
      <trkpt lat="49.59717" lon="4.99123">
        <ele>314.97</ele>
        <time>2019-02-12T13:36:50Z</time>
      </trkpt>
      <trkpt lat="49.597" lon="4.99136">
        <ele>312.57</ele>
        <time>2019-02-12T13:37:08Z</time>
      </trkpt>
      <trkpt lat="49.59678" lon="4.9915">
        <ele>312.57</ele>
        <time>2019-02-12T13:37:27Z</time>
      </trkpt>
      <trkpt lat="49.59667" lon="4.99159">
        <ele>314.01</ele>
        <time>2019-02-12T13:37:39Z</time>
      </trkpt>
      <trkpt lat="49.59653" lon="4.9917">
        <ele>313.53</ele>
        <time>2019-02-12T13:37:53Z</time>
      </trkpt>
      <trkpt lat="49.59633" lon="4.99182">
        <ele>312.57</ele>
        <time>2019-02-12T13:38:09Z</time>
      </trkpt>
      <trkpt lat="49.59615" lon="4.99197">
        <ele>310.64</ele>
        <time>2019-02-12T13:38:25Z</time>
      </trkpt>
      <trkpt lat="49.59601" lon="4.99211">
        <ele>310.16</ele>
        <time>2019-02-12T13:38:40Z</time>
      </trkpt>
      <trkpt lat="49.59585" lon="4.99224">
        <ele>310.16</ele>
        <time>2019-02-12T13:38:56Z</time>
      </trkpt>
      <trkpt lat="49.59579" lon="4.99228">
        <ele>309.2</ele>
        <time>2019-02-12T13:39:02Z</time>
      </trkpt>
      <trkpt lat="49.59565" lon="4.99242">
        <ele>309.68</ele>
        <time>2019-02-12T13:39:16Z</time>
      </trkpt>
      <trkpt lat="49.59544" lon="4.99259">
        <ele>309.68</ele>
        <time>2019-02-12T13:39:37Z</time>
      </trkpt>
      <trkpt lat="49.59535" lon="4.99265">
        <ele>309.68</ele>
        <time>2019-02-12T13:39:46Z</time>
      </trkpt>
      <trkpt lat="49.59516" lon="4.9929">
        <ele>305.84</ele>
        <time>2019-02-12T13:40:07Z</time>
      </trkpt>
      <trkpt lat="49.59501" lon="4.99305">
        <ele>305.36</ele>
        <time>2019-02-12T13:40:23Z</time>
      </trkpt>
      <trkpt lat="49.59499" lon="4.99311">
        <ele>305.36</ele>
        <time>2019-02-12T13:40:27Z</time>
      </trkpt>
      <trkpt lat="49.59499" lon="4.99315">
        <ele>305.36</ele>
        <time>2019-02-12T13:40:29Z</time>
      </trkpt>
      <trkpt lat="49.59507" lon="4.99339">
        <ele>307.28</ele>
        <time>2019-02-12T13:40:45Z</time>
      </trkpt>
      <trkpt lat="49.59508" lon="4.99362">
        <ele>303.43</ele>
        <time>2019-02-12T13:41:01Z</time>
      </trkpt>
      <trkpt lat="49.59509" lon="4.99366">
        <ele>302.95</ele>
        <time>2019-02-12T13:41:04Z</time>
      </trkpt>
      <trkpt lat="49.59517" lon="4.99378">
        <ele>303.91</ele>
        <time>2019-02-12T13:41:17Z</time>
      </trkpt>
      <trkpt lat="49.59531" lon="4.99399">
        <ele>304.39</ele>
        <time>2019-02-12T13:41:35Z</time>
      </trkpt>
      <trkpt lat="49.59542" lon="4.99418">
        <ele>300.55</ele>
        <time>2019-02-12T13:41:52Z</time>
      </trkpt>
      <trkpt lat="49.59544" lon="4.9943">
        <ele>300.07</ele>
        <time>2019-02-12T13:42:00Z</time>
      </trkpt>
      <trkpt lat="49.59556" lon="4.99459">
        <ele>297.18</ele>
        <time>2019-02-12T13:42:20Z</time>
      </trkpt>
      <trkpt lat="49.59567" lon="4.99483">
        <ele>294.3</ele>
        <time>2019-02-12T13:42:38Z</time>
      </trkpt>
      <trkpt lat="49.59578" lon="4.99508">
        <ele>287.57</ele>
        <time>2019-02-12T13:42:56Z</time>
      </trkpt>
      <trkpt lat="49.59586" lon="4.99527">
        <ele>284.21</ele>
        <time>2019-02-12T13:43:12Z</time>
      </trkpt>
      <trkpt lat="49.59596" lon="4.99549">
        <ele>282.28</ele>
        <time>2019-02-12T13:43:27Z</time>
      </trkpt>
      <trkpt lat="49.59608" lon="4.99574">
        <ele>282.28</ele>
        <time>2019-02-12T13:43:45Z</time>
      </trkpt>
      <trkpt lat="49.59618" lon="4.99602">
        <ele>281.32</ele>
        <time>2019-02-12T13:44:03Z</time>
      </trkpt>
      <trkpt lat="49.59627" lon="4.99628">
        <ele>277.48</ele>
        <time>2019-02-12T13:44:20Z</time>
      </trkpt>
      <trkpt lat="49.59635" lon="4.9965">
        <ele>275.56</ele>
        <time>2019-02-12T13:44:35Z</time>
      </trkpt>
      <trkpt lat="49.59635" lon="4.99654">
        <ele>275.56</ele>
        <time>2019-02-12T13:44:37Z</time>
      </trkpt>
      <trkpt lat="49.59644" lon="4.99682">
        <ele>275.07</ele>
        <time>2019-02-12T13:44:56Z</time>
      </trkpt>
      <trkpt lat="49.59656" lon="4.99712">
        <ele>274.59</ele>
        <time>2019-02-12T13:45:16Z</time>
      </trkpt>
      <trkpt lat="49.59663" lon="4.99736">
        <ele>274.11</ele>
        <time>2019-02-12T13:45:31Z</time>
      </trkpt>
      <trkpt lat="49.59673" lon="4.99765">
        <ele>272.67</ele>
        <time>2019-02-12T13:45:51Z</time>
      </trkpt>
      <trkpt lat="49.59683" lon="4.99789">
        <ele>274.11</ele>
        <time>2019-02-12T13:46:07Z</time>
      </trkpt>
      <trkpt lat="49.59692" lon="4.99811">
        <ele>277</ele>
        <time>2019-02-12T13:46:22Z</time>
      </trkpt>
      <trkpt lat="49.59703" lon="4.99837">
        <ele>278.92</ele>
        <time>2019-02-12T13:46:39Z</time>
      </trkpt>
      <trkpt lat="49.59714" lon="4.99863">
        <ele>278.92</ele>
        <time>2019-02-12T13:46:57Z</time>
      </trkpt>
      <trkpt lat="49.59721" lon="4.99886">
        <ele>277.96</ele>
        <time>2019-02-12T13:47:12Z</time>
      </trkpt>
      <trkpt lat="49.59728" lon="4.99911">
        <ele>280.36</ele>
        <time>2019-02-12T13:47:27Z</time>
      </trkpt>
      <trkpt lat="49.59739" lon="4.99934">
        <ele>279.4</ele>
        <time>2019-02-12T13:47:44Z</time>
      </trkpt>
      <trkpt lat="49.59745" lon="4.99951">
        <ele>277.96</ele>
        <time>2019-02-12T13:47:56Z</time>
      </trkpt>
      <trkpt lat="49.59752" lon="4.9998">
        <ele>278.44</ele>
        <time>2019-02-12T13:48:14Z</time>
      </trkpt>
      <trkpt lat="49.59756" lon="5.00003">
        <ele>278.44</ele>
        <time>2019-02-12T13:48:30Z</time>
      </trkpt>
      <trkpt lat="49.59759" lon="5.00014">
        <ele>278.44</ele>
        <time>2019-02-12T13:48:37Z</time>
      </trkpt>
      <trkpt lat="49.59763" lon="5.0004">
        <ele>279.4</ele>
        <time>2019-02-12T13:48:52Z</time>
      </trkpt>
      <trkpt lat="49.59765" lon="5.00046">
        <ele>278.92</ele>
        <time>2019-02-12T13:48:56Z</time>
      </trkpt>
      <trkpt lat="49.59773" lon="5.00078">
        <ele>277</ele>
        <time>2019-02-12T13:49:16Z</time>
      </trkpt>
      <trkpt lat="49.59782" lon="5.00103">
        <ele>274.11</ele>
        <time>2019-02-12T13:49:33Z</time>
      </trkpt>
      <trkpt lat="49.5979" lon="5.00132">
        <ele>272.67</ele>
        <time>2019-02-12T13:49:51Z</time>
      </trkpt>
      <trkpt lat="49.59802" lon="5.00165">
        <ele>280.84</ele>
        <time>2019-02-12T13:50:11Z</time>
      </trkpt>
      <trkpt lat="49.59814" lon="5.00194">
        <ele>283.73</ele>
        <time>2019-02-12T13:50:30Z</time>
      </trkpt>
      <trkpt lat="49.59815" lon="5.002">
        <ele>283.73</ele>
        <time>2019-02-12T13:50:34Z</time>
      </trkpt>
      <trkpt lat="49.59826" lon="5.00224">
        <ele>283.25</ele>
        <time>2019-02-12T13:50:51Z</time>
      </trkpt>
      <trkpt lat="49.59837" lon="5.0025">
        <ele>282.77</ele>
        <time>2019-02-12T13:51:09Z</time>
      </trkpt>
      <trkpt lat="49.59849" lon="5.00273">
        <ele>282.77</ele>
        <time>2019-02-12T13:51:25Z</time>
      </trkpt>
      <trkpt lat="49.59861" lon="5.00299">
        <ele>281.8</ele>
        <time>2019-02-12T13:51:43Z</time>
      </trkpt>
      <trkpt lat="49.59864" lon="5.00309">
        <ele>279.88</ele>
        <time>2019-02-12T13:51:58Z</time>
      </trkpt>
      <trkpt lat="49.59871" lon="5.00323">
        <ele>281.32</ele>
        <time>2019-02-12T13:52:14Z</time>
      </trkpt>
      <trkpt lat="49.59883" lon="5.00345">
        <ele>279.88</ele>
        <time>2019-02-12T13:52:32Z</time>
      </trkpt>
      <trkpt lat="49.59891" lon="5.00362">
        <ele>278.44</ele>
        <time>2019-02-12T13:52:47Z</time>
      </trkpt>
      <trkpt lat="49.59897" lon="5.00379">
        <ele>277</ele>
        <time>2019-02-12T13:53:01Z</time>
      </trkpt>
      <trkpt lat="49.59907" lon="5.00399">
        <ele>273.15</ele>
        <time>2019-02-12T13:53:17Z</time>
      </trkpt>
      <trkpt lat="49.59914" lon="5.00419">
        <ele>272.19</ele>
        <time>2019-02-12T13:53:31Z</time>
      </trkpt>
      <trkpt lat="49.59924" lon="5.00432">
        <ele>271.71</ele>
        <time>2019-02-12T13:53:45Z</time>
      </trkpt>
      <trkpt lat="49.59932" lon="5.00448">
        <ele>271.71</ele>
        <time>2019-02-12T13:54:00Z</time>
      </trkpt>
      <trkpt lat="49.59939" lon="5.00463">
        <ele>274.11</ele>
        <time>2019-02-12T13:54:14Z</time>
      </trkpt>
      <trkpt lat="49.5995" lon="5.00489">
        <ele>278.92</ele>
        <time>2019-02-12T13:54:33Z</time>
      </trkpt>
      <trkpt lat="49.59961" lon="5.00496">
        <ele>284.21</ele>
        <time>2019-02-12T13:54:48Z</time>
      </trkpt>
      <trkpt lat="49.59963" lon="5.00495">
        <ele>284.21</ele>
        <time>2019-02-12T13:54:50Z</time>
      </trkpt>
      <trkpt lat="49.5998" lon="5.00492">
        <ele>283.73</ele>
        <time>2019-02-12T13:55:07Z</time>
      </trkpt>
      <trkpt lat="49.59993" lon="5.00486">
        <ele>284.21</ele>
        <time>2019-02-12T13:55:23Z</time>
      </trkpt>
      <trkpt lat="49.59996" lon="5.00485">
        <ele>284.21</ele>
        <time>2019-02-12T13:55:26Z</time>
      </trkpt>
      <trkpt lat="49.60001" lon="5.00483">
        <ele>284.21</ele>
        <time>2019-02-12T13:55:32Z</time>
      </trkpt>
      <trkpt lat="49.60016" lon="5.0048">
        <ele>284.21</ele>
        <time>2019-02-12T13:55:47Z</time>
      </trkpt>
      <trkpt lat="49.6003" lon="5.00477">
        <ele>284.69</ele>
        <time>2019-02-12T13:56:04Z</time>
      </trkpt>
      <trkpt lat="49.60051" lon="5.00478">
        <ele>285.65</ele>
        <time>2019-02-12T13:56:22Z</time>
      </trkpt>
      <trkpt lat="49.60053" lon="5.0048">
        <ele>285.65</ele>
        <time>2019-02-12T13:56:25Z</time>
      </trkpt>
      <trkpt lat="49.60064" lon="5.00497">
        <ele>284.69</ele>
        <time>2019-02-12T13:56:43Z</time>
      </trkpt>
      <trkpt lat="49.60074" lon="5.0052">
        <ele>283.25</ele>
        <time>2019-02-12T13:56:59Z</time>
      </trkpt>
      <trkpt lat="49.60085" lon="5.00545">
        <ele>282.28</ele>
        <time>2019-02-12T13:57:17Z</time>
      </trkpt>
      <trkpt lat="49.60085" lon="5.00548">
        <ele>281.8</ele>
        <time>2019-02-12T13:57:19Z</time>
      </trkpt>
      <trkpt lat="49.60093" lon="5.00571">
        <ele>278.92</ele>
        <time>2019-02-12T13:57:35Z</time>
      </trkpt>
      <trkpt lat="49.60105" lon="5.00599">
        <ele>277.96</ele>
        <time>2019-02-12T13:57:54Z</time>
      </trkpt>
      <trkpt lat="49.60117" lon="5.00626">
        <ele>277.48</ele>
        <time>2019-02-12T13:58:13Z</time>
      </trkpt>
      <trkpt lat="49.60124" lon="5.0064">
        <ele>277</ele>
        <time>2019-02-12T13:58:24Z</time>
      </trkpt>
      <trkpt lat="49.60137" lon="5.00671">
        <ele>274.11</ele>
        <time>2019-02-12T13:58:47Z</time>
      </trkpt>
      <trkpt lat="49.60147" lon="5.00693">
        <ele>272.19</ele>
        <time>2019-02-12T13:59:04Z</time>
      </trkpt>
      <trkpt lat="49.60157" lon="5.0072">
        <ele>270.75</ele>
        <time>2019-02-12T13:59:24Z</time>
      </trkpt>
      <trkpt lat="49.60166" lon="5.0074">
        <ele>268.35</ele>
        <time>2019-02-12T13:59:39Z</time>
      </trkpt>
      <trkpt lat="49.60174" lon="5.00758">
        <ele>265.94</ele>
        <time>2019-02-12T13:59:53Z</time>
      </trkpt>
      <trkpt lat="49.60182" lon="5.00778">
        <ele>263.06</ele>
        <time>2019-02-12T14:00:10Z</time>
      </trkpt>
      <trkpt lat="49.60194" lon="5.00804">
        <ele>264.5</ele>
        <time>2019-02-12T14:00:29Z</time>
      </trkpt>
      <trkpt lat="49.60197" lon="5.00811">
        <ele>264.5</ele>
        <time>2019-02-12T14:00:41Z</time>
      </trkpt>
      <trkpt lat="49.60202" lon="5.00834">
        <ele>261.62</ele>
        <time>2019-02-12T14:00:56Z</time>
      </trkpt>
      <trkpt lat="49.60207" lon="5.00859">
        <ele>260.65</ele>
        <time>2019-02-12T14:01:13Z</time>
      </trkpt>
      <trkpt lat="49.60212" lon="5.0088">
        <ele>261.14</ele>
        <time>2019-02-12T14:01:28Z</time>
      </trkpt>
      <trkpt lat="49.60218" lon="5.00899">
        <ele>261.14</ele>
        <time>2019-02-12T14:01:42Z</time>
      </trkpt>
      <trkpt lat="49.60223" lon="5.00926">
        <ele>263.06</ele>
        <time>2019-02-12T14:01:59Z</time>
      </trkpt>
      <trkpt lat="49.60228" lon="5.00947">
        <ele>264.02</ele>
        <time>2019-02-12T14:02:14Z</time>
      </trkpt>
      <trkpt lat="49.60234" lon="5.0097">
        <ele>263.06</ele>
        <time>2019-02-12T14:02:30Z</time>
      </trkpt>
      <trkpt lat="49.6024" lon="5.01">
        <ele>259.21</ele>
        <time>2019-02-12T14:02:49Z</time>
      </trkpt>
      <trkpt lat="49.60245" lon="5.0102">
        <ele>259.69</ele>
        <time>2019-02-12T14:03:03Z</time>
      </trkpt>
      <trkpt lat="49.60248" lon="5.01025">
        <ele>260.17</ele>
        <time>2019-02-12T14:03:07Z</time>
      </trkpt>
      <trkpt lat="49.60251" lon="5.0104">
        <ele>260.17</ele>
        <time>2019-02-12T14:03:17Z</time>
      </trkpt>
      <trkpt lat="49.6026" lon="5.01068">
        <ele>262.1</ele>
        <time>2019-02-12T14:03:35Z</time>
      </trkpt>
      <trkpt lat="49.60263" lon="5.01078">
        <ele>261.62</ele>
        <time>2019-02-12T14:03:42Z</time>
      </trkpt>
      <trkpt lat="49.6027" lon="5.01103">
        <ele>261.14</ele>
        <time>2019-02-12T14:03:58Z</time>
      </trkpt>
      <trkpt lat="49.60274" lon="5.01116">
        <ele>260.65</ele>
        <time>2019-02-12T14:04:05Z</time>
      </trkpt>
      <trkpt lat="49.6028" lon="5.01149">
        <ele>261.14</ele>
        <time>2019-02-12T14:04:23Z</time>
      </trkpt>
      <trkpt lat="49.60284" lon="5.0118">
        <ele>257.29</ele>
        <time>2019-02-12T14:04:43Z</time>
      </trkpt>
      <trkpt lat="49.60283" lon="5.01213">
        <ele>254.41</ele>
        <time>2019-02-12T14:05:01Z</time>
      </trkpt>
      <trkpt lat="49.60283" lon="5.01245">
        <ele>254.41</ele>
        <time>2019-02-12T14:05:20Z</time>
      </trkpt>
      <trkpt lat="49.60282" lon="5.01284">
        <ele>252</ele>
        <time>2019-02-12T14:05:42Z</time>
      </trkpt>
      <trkpt lat="49.60282" lon="5.01317">
        <ele>248.64</ele>
        <time>2019-02-12T14:06:03Z</time>
      </trkpt>
      <trkpt lat="49.60285" lon="5.01347">
        <ele>245.27</ele>
        <time>2019-02-12T14:06:21Z</time>
      </trkpt>
      <trkpt lat="49.60286" lon="5.01374">
        <ele>246.72</ele>
        <time>2019-02-12T14:06:37Z</time>
      </trkpt>
      <trkpt lat="49.60292" lon="5.014">
        <ele>244.31</ele>
        <time>2019-02-12T14:06:54Z</time>
      </trkpt>
      <trkpt lat="49.60302" lon="5.01424">
        <ele>236.14</ele>
        <time>2019-02-12T14:07:13Z</time>
      </trkpt>
      <trkpt lat="49.6031" lon="5.01452">
        <ele>229.89</ele>
        <time>2019-02-12T14:07:31Z</time>
      </trkpt>
      <trkpt lat="49.60322" lon="5.01484">
        <ele>227.97</ele>
        <time>2019-02-12T14:07:51Z</time>
      </trkpt>
      <trkpt lat="49.60333" lon="5.01502">
        <ele>227.97</ele>
        <time>2019-02-12T14:08:08Z</time>
      </trkpt>
      <trkpt lat="49.60347" lon="5.0152">
        <ele>225.09</ele>
        <time>2019-02-12T14:08:24Z</time>
      </trkpt>
      <trkpt lat="49.60361" lon="5.01538">
        <ele>219.32</ele>
        <time>2019-02-12T14:08:38Z</time>
      </trkpt>
      <trkpt lat="49.60377" lon="5.01555">
        <ele>214.51</ele>
        <time>2019-02-12T14:08:55Z</time>
      </trkpt>
      <trkpt lat="49.60392" lon="5.0157">
        <ele>213.07</ele>
        <time>2019-02-12T14:09:10Z</time>
      </trkpt>
      <trkpt lat="49.60407" lon="5.0159">
        <ele>212.11</ele>
        <time>2019-02-12T14:09:28Z</time>
      </trkpt>
      <trkpt lat="49.60415" lon="5.01605">
        <ele>208.74</ele>
        <time>2019-02-12T14:09:41Z</time>
      </trkpt>
      <trkpt lat="49.60429" lon="5.01619">
        <ele>206.34</ele>
        <time>2019-02-12T14:09:58Z</time>
      </trkpt>
      <trkpt lat="49.60442" lon="5.01635">
        <ele>203.46</ele>
        <time>2019-02-12T14:10:15Z</time>
      </trkpt>
      <trkpt lat="49.60455" lon="5.01646">
        <ele>199.61</ele>
        <time>2019-02-12T14:10:29Z</time>
      </trkpt>
      <trkpt lat="49.60471" lon="5.01663">
        <ele>198.17</ele>
        <time>2019-02-12T14:10:47Z</time>
      </trkpt>
      <trkpt lat="49.60488" lon="5.01675">
        <ele>198.65</ele>
        <time>2019-02-12T14:11:04Z</time>
      </trkpt>
      <trkpt lat="49.60515" lon="5.01689">
        <ele>202.01</ele>
        <time>2019-02-12T14:11:26Z</time>
      </trkpt>
      <trkpt lat="49.60534" lon="5.01698">
        <ele>202.98</ele>
        <time>2019-02-12T14:11:44Z</time>
      </trkpt>
      <trkpt lat="49.60553" lon="5.01712">
        <ele>201.05</ele>
        <time>2019-02-12T14:12:03Z</time>
      </trkpt>
      <trkpt lat="49.60571" lon="5.01721">
        <ele>198.65</ele>
        <time>2019-02-12T14:12:22Z</time>
      </trkpt>
      <trkpt lat="49.60589" lon="5.01732">
        <ele>197.21</ele>
        <time>2019-02-12T14:12:41Z</time>
      </trkpt>
      <trkpt lat="49.60612" lon="5.01742">
        <ele>196.25</ele>
        <time>2019-02-12T14:13:02Z</time>
      </trkpt>
      <trkpt lat="49.60635" lon="5.01751">
        <ele>192.88</ele>
        <time>2019-02-12T14:13:25Z</time>
      </trkpt>
      <trkpt lat="49.60655" lon="5.01744">
        <ele>191.44</ele>
        <time>2019-02-12T14:13:44Z</time>
      </trkpt>
      <trkpt lat="49.60677" lon="5.01737">
        <ele>188.56</ele>
        <time>2019-02-12T14:14:06Z</time>
      </trkpt>
      <trkpt lat="49.60693" lon="5.01747">
        <ele>185.19</ele>
        <time>2019-02-12T14:14:23Z</time>
      </trkpt>
      <trkpt lat="49.60702" lon="5.01765">
        <ele>182.79</ele>
        <time>2019-02-12T14:14:38Z</time>
      </trkpt>
      <trkpt lat="49.60706" lon="5.01772">
        <ele>182.31</ele>
        <time>2019-02-12T14:14:44Z</time>
      </trkpt>
      <trkpt lat="49.60707" lon="5.01775">
        <ele>181.83</ele>
        <time>2019-02-12T14:14:46Z</time>
      </trkpt>
      <trkpt lat="49.60718" lon="5.01796">
        <ele>180.38</ele>
        <time>2019-02-12T14:15:03Z</time>
      </trkpt>
      <trkpt lat="49.60728" lon="5.01822">
        <ele>179.9</ele>
        <time>2019-02-12T14:15:22Z</time>
      </trkpt>
      <trkpt lat="49.60729" lon="5.01825">
        <ele>179.9</ele>
        <time>2019-02-12T14:15:24Z</time>
      </trkpt>
      <trkpt lat="49.60738" lon="5.01847">
        <ele>177.5</ele>
        <time>2019-02-12T14:15:40Z</time>
      </trkpt>
      <trkpt lat="49.60745" lon="5.01872">
        <ele>174.62</ele>
        <time>2019-02-12T14:15:57Z</time>
      </trkpt>
      <trkpt lat="49.60751" lon="5.01898">
        <ele>175.1</ele>
        <time>2019-02-12T14:16:14Z</time>
      </trkpt>
      <trkpt lat="49.60756" lon="5.0192">
        <ele>175.58</ele>
        <time>2019-02-12T14:16:28Z</time>
      </trkpt>
      <trkpt lat="49.60761" lon="5.01944">
        <ele>176.54</ele>
        <time>2019-02-12T14:16:42Z</time>
      </trkpt>
      <trkpt lat="49.60764" lon="5.01967">
        <ele>179.42</ele>
        <time>2019-02-12T14:16:56Z</time>
      </trkpt>
      <trkpt lat="49.60767" lon="5.01987">
        <ele>180.38</ele>
        <time>2019-02-12T14:17:08Z</time>
      </trkpt>
      <trkpt lat="49.60775" lon="5.02014">
        <ele>183.27</ele>
        <time>2019-02-12T14:17:25Z</time>
      </trkpt>
      <trkpt lat="49.60779" lon="5.02038">
        <ele>184.71</ele>
        <time>2019-02-12T14:17:39Z</time>
      </trkpt>
      <trkpt lat="49.60782" lon="5.02051">
        <ele>184.71</ele>
        <time>2019-02-12T14:17:47Z</time>
      </trkpt>
      <trkpt lat="49.60782" lon="5.02054">
        <ele>184.71</ele>
        <time>2019-02-12T14:17:49Z</time>
      </trkpt>
      <trkpt lat="49.60789" lon="5.02082">
        <ele>178.46</ele>
        <time>2019-02-12T14:18:06Z</time>
      </trkpt>
      <trkpt lat="49.60796" lon="5.02103">
        <ele>172.21</ele>
        <time>2019-02-12T14:18:21Z</time>
      </trkpt>
      <trkpt lat="49.60796" lon="5.02104">
        <ele>171.73</ele>
        <time>2019-02-12T14:18:22Z</time>
      </trkpt>
      <trkpt lat="49.60804" lon="5.0213">
        <ele>166.93</ele>
        <time>2019-02-12T14:18:40Z</time>
      </trkpt>
      <trkpt lat="49.60815" lon="5.02154">
        <ele>163.08</ele>
        <time>2019-02-12T14:18:57Z</time>
      </trkpt>
      <trkpt lat="49.60816" lon="5.02158">
        <ele>161.64</ele>
        <time>2019-02-12T14:19:01Z</time>
      </trkpt>
      <trkpt lat="49.60819" lon="5.02162">
        <ele>161.16</ele>
        <time>2019-02-12T14:19:04Z</time>
      </trkpt>
      <trkpt lat="49.60834" lon="5.02184">
        <ele>160.68</ele>
        <time>2019-02-12T14:19:22Z</time>
      </trkpt>
      <trkpt lat="49.60849" lon="5.02203">
        <ele>157.31</ele>
        <time>2019-02-12T14:19:39Z</time>
      </trkpt>
      <trkpt lat="49.60853" lon="5.02209">
        <ele>157.31</ele>
        <time>2019-02-12T14:19:44Z</time>
      </trkpt>
      <trkpt lat="49.60859" lon="5.02217">
        <ele>157.79</ele>
        <time>2019-02-12T14:19:51Z</time>
      </trkpt>
      <trkpt lat="49.60875" lon="5.02239">
        <ele>159.72</ele>
        <time>2019-02-12T14:20:09Z</time>
      </trkpt>
      <trkpt lat="49.60892" lon="5.02261">
        <ele>159.72</ele>
        <time>2019-02-12T14:20:28Z</time>
      </trkpt>
      <trkpt lat="49.60905" lon="5.02297">
        <ele>161.64</ele>
        <time>2019-02-12T14:20:51Z</time>
      </trkpt>
      <trkpt lat="49.60915" lon="5.02328">
        <ele>165</ele>
        <time>2019-02-12T14:21:10Z</time>
      </trkpt>
      <trkpt lat="49.60927" lon="5.02363">
        <ele>166.45</ele>
        <time>2019-02-12T14:21:33Z</time>
      </trkpt>
      <trkpt lat="49.60935" lon="5.02383">
        <ele>167.41</ele>
        <time>2019-02-12T14:21:48Z</time>
      </trkpt>
      <trkpt lat="49.60945" lon="5.02415">
        <ele>169.33</ele>
        <time>2019-02-12T14:22:07Z</time>
      </trkpt>
      <trkpt lat="49.60957" lon="5.02442">
        <ele>171.73</ele>
        <time>2019-02-12T14:22:26Z</time>
      </trkpt>
      <trkpt lat="49.60972" lon="5.02468">
        <ele>174.62</ele>
        <time>2019-02-12T14:22:44Z</time>
      </trkpt>
      <trkpt lat="49.60989" lon="5.02489">
        <ele>176.06</ele>
        <time>2019-02-12T14:23:03Z</time>
      </trkpt>
      <trkpt lat="49.61012" lon="5.02508">
        <ele>176.54</ele>
        <time>2019-02-12T14:23:26Z</time>
      </trkpt>
      <trkpt lat="49.61034" lon="5.02521">
        <ele>175.58</ele>
        <time>2019-02-12T14:23:46Z</time>
      </trkpt>
      <trkpt lat="49.6105" lon="5.02525">
        <ele>177.02</ele>
        <time>2019-02-12T14:24:02Z</time>
      </trkpt>
      <trkpt lat="49.61068" lon="5.0253">
        <ele>175.58</ele>
        <time>2019-02-12T14:24:19Z</time>
      </trkpt>
      <trkpt lat="49.61078" lon="5.02534">
        <ele>175.1</ele>
        <time>2019-02-12T14:24:30Z</time>
      </trkpt>
      <trkpt lat="49.61096" lon="5.02547">
        <ele>175.1</ele>
        <time>2019-02-12T14:24:51Z</time>
      </trkpt>
      <trkpt lat="49.61105" lon="5.02552">
        <ele>173.66</ele>
        <time>2019-02-12T14:25:00Z</time>
      </trkpt>
      <trkpt lat="49.61107" lon="5.02543">
        <ele>175.58</ele>
        <time>2019-02-12T14:25:13Z</time>
      </trkpt>
      <trkpt lat="49.61104" lon="5.02542">
        <ele>176.06</ele>
        <time>2019-02-12T14:25:16Z</time>
      </trkpt>
      <trkpt lat="49.61088" lon="5.02534">
        <ele>181.35</ele>
        <time>2019-02-12T14:25:31Z</time>
      </trkpt>
      <trkpt lat="49.61082" lon="5.02527">
        <ele>182.79</ele>
        <time>2019-02-12T14:25:38Z</time>
      </trkpt>
      <trkpt lat="49.61068" lon="5.02511">
        <ele>184.23</ele>
        <time>2019-02-12T14:25:54Z</time>
      </trkpt>
      <trkpt lat="49.61066" lon="5.02506">
        <ele>184.71</ele>
        <time>2019-02-12T14:25:57Z</time>
      </trkpt>
      <trkpt lat="49.61075" lon="5.02478">
        <ele>186.15</ele>
        <time>2019-02-12T14:26:16Z</time>
      </trkpt>
      <trkpt lat="49.6109" lon="5.02461">
        <ele>187.11</ele>
        <time>2019-02-12T14:26:33Z</time>
      </trkpt>
      <trkpt lat="49.61101" lon="5.02453">
        <ele>187.11</ele>
        <time>2019-02-12T14:26:47Z</time>
      </trkpt>
      <trkpt lat="49.61101" lon="5.02454">
        <ele>186.63</ele>
        <time>2019-02-12T14:27:11Z</time>
      </trkpt>
      <trkpt lat="49.61102" lon="5.02452">
        <ele>186.63</ele>
        <time>2019-02-12T14:27:22Z</time>
      </trkpt>
      <trkpt lat="49.61102" lon="5.02451">
        <ele>186.63</ele>
        <time>2019-02-12T14:27:37Z</time>
      </trkpt>
      <trkpt lat="49.61102" lon="5.0245">
        <ele>186.63</ele>
        <time>2019-02-12T14:28:06Z</time>
      </trkpt>
      <trkpt lat="49.61101" lon="5.0245">
        <ele>187.11</ele>
        <time>2019-02-12T14:28:15Z</time>
      </trkpt>
      <trkpt lat="49.61101" lon="5.02451">
        <ele>187.59</ele>
        <time>2019-02-12T14:28:30Z</time>
      </trkpt>
      <trkpt lat="49.61101" lon="5.02452">
        <ele>187.59</ele>
        <time>2019-02-12T14:28:56Z</time>
      </trkpt>
      <trkpt lat="49.611" lon="5.02451">
        <ele>188.56</ele>
        <time>2019-02-12T14:29:29Z</time>
      </trkpt>
      <trkpt lat="49.61101" lon="5.02453">
        <ele>190</ele>
        <time>2019-02-12T14:30:08Z</time>
      </trkpt>
      <trkpt lat="49.61101" lon="5.02452">
        <ele>190.48</ele>
        <time>2019-02-12T14:30:39Z</time>
      </trkpt>
      <trkpt lat="49.611" lon="5.02452">
        <ele>191.44</ele>
        <time>2019-02-12T14:31:16Z</time>
      </trkpt>
      <trkpt lat="49.611" lon="5.02452">
        <ele>192.4</ele>
        <time>2019-02-12T14:31:53Z</time>
      </trkpt>
      <trkpt lat="49.61099" lon="5.02452">
        <ele>192.88</ele>
        <time>2019-02-12T14:32:30Z</time>
      </trkpt>
      <trkpt lat="49.61099" lon="5.02453">
        <ele>193.36</ele>
        <time>2019-02-12T14:33:03Z</time>
      </trkpt>
      <trkpt lat="49.61099" lon="5.02454">
        <ele>193.84</ele>
        <time>2019-02-12T14:33:44Z</time>
      </trkpt>
      <trkpt lat="49.61099" lon="5.02454">
        <ele>193.84</ele>
        <time>2019-02-12T14:34:19Z</time>
      </trkpt>
      <trkpt lat="49.61099" lon="5.02453">
        <ele>194.32</ele>
        <time>2019-02-12T14:34:53Z</time>
      </trkpt>
      <trkpt lat="49.611" lon="5.02455">
        <ele>194.32</ele>
        <time>2019-02-12T14:35:20Z</time>
      </trkpt>
      <trkpt lat="49.61101" lon="5.02454">
        <ele>192.88</ele>
        <time>2019-02-12T14:35:34Z</time>
      </trkpt>
      <trkpt lat="49.61102" lon="5.02452">
        <ele>191.44</ele>
        <time>2019-02-12T14:35:54Z</time>
      </trkpt>
      <trkpt lat="49.61102" lon="5.02451">
        <ele>190.96</ele>
        <time>2019-02-12T14:36:15Z</time>
      </trkpt>
      <trkpt lat="49.61102" lon="5.0245">
        <ele>189.52</ele>
        <time>2019-02-12T14:36:42Z</time>
      </trkpt>
      <trkpt lat="49.61102" lon="5.02449">
        <ele>189.52</ele>
        <time>2019-02-12T14:36:58Z</time>
      </trkpt>
      <trkpt lat="49.61103" lon="5.02445">
        <ele>188.56</ele>
        <time>2019-02-12T14:37:16Z</time>
      </trkpt>
      <trkpt lat="49.6111" lon="5.02425">
        <ele>189.04</ele>
        <time>2019-02-12T14:37:31Z</time>
      </trkpt>
      <trkpt lat="49.61119" lon="5.02399">
        <ele>190.96</ele>
        <time>2019-02-12T14:37:50Z</time>
      </trkpt>
      <trkpt lat="49.61125" lon="5.02376">
        <ele>190.48</ele>
        <time>2019-02-12T14:38:06Z</time>
      </trkpt>
      <trkpt lat="49.61132" lon="5.02351">
        <ele>191.44</ele>
        <time>2019-02-12T14:38:24Z</time>
      </trkpt>
      <trkpt lat="49.61136" lon="5.02331">
        <ele>195.28</ele>
        <time>2019-02-12T14:38:37Z</time>
      </trkpt>
      <trkpt lat="49.61136" lon="5.02307">
        <ele>197.69</ele>
        <time>2019-02-12T14:38:52Z</time>
      </trkpt>
      <trkpt lat="49.61136" lon="5.02305">
        <ele>197.69</ele>
        <time>2019-02-12T14:38:54Z</time>
      </trkpt>
      <trkpt lat="49.61131" lon="5.02281">
        <ele>199.61</ele>
        <time>2019-02-12T14:39:09Z</time>
      </trkpt>
      <trkpt lat="49.61131" lon="5.0228">
        <ele>200.09</ele>
        <time>2019-02-12T14:39:10Z</time>
      </trkpt>
      <trkpt lat="49.61128" lon="5.02273">
        <ele>200.57</ele>
        <time>2019-02-12T14:39:15Z</time>
      </trkpt>
      <trkpt lat="49.6112" lon="5.02254">
        <ele>203.46</ele>
        <time>2019-02-12T14:39:31Z</time>
      </trkpt>
      <trkpt lat="49.61118" lon="5.02248">
        <ele>205.38</ele>
        <time>2019-02-12T14:39:47Z</time>
      </trkpt>
      <trkpt lat="49.61114" lon="5.02229">
        <ele>206.82</ele>
        <time>2019-02-12T14:39:59Z</time>
      </trkpt>
      <trkpt lat="49.6111" lon="5.02213">
        <ele>207.3</ele>
        <time>2019-02-12T14:40:12Z</time>
      </trkpt>
      <trkpt lat="49.61106" lon="5.02192">
        <ele>207.3</ele>
        <time>2019-02-12T14:40:25Z</time>
      </trkpt>
      <trkpt lat="49.61105" lon="5.02183">
        <ele>208.26</ele>
        <time>2019-02-12T14:40:31Z</time>
      </trkpt>
      <trkpt lat="49.61102" lon="5.02164">
        <ele>208.74</ele>
        <time>2019-02-12T14:40:45Z</time>
      </trkpt>
      <trkpt lat="49.61098" lon="5.02146">
        <ele>210.19</ele>
        <time>2019-02-12T14:40:56Z</time>
      </trkpt>
      <trkpt lat="49.61092" lon="5.02125">
        <ele>210.67</ele>
        <time>2019-02-12T14:41:10Z</time>
      </trkpt>
      <trkpt lat="49.61087" lon="5.02104">
        <ele>211.63</ele>
        <time>2019-02-12T14:41:23Z</time>
      </trkpt>
      <trkpt lat="49.61087" lon="5.021">
        <ele>211.63</ele>
        <time>2019-02-12T14:41:26Z</time>
      </trkpt>
      <trkpt lat="49.61084" lon="5.02096">
        <ele>211.63</ele>
        <time>2019-02-12T14:41:29Z</time>
      </trkpt>
      <trkpt lat="49.61081" lon="5.02074">
        <ele>213.55</ele>
        <time>2019-02-12T14:41:44Z</time>
      </trkpt>
      <trkpt lat="49.61075" lon="5.02051">
        <ele>216.43</ele>
        <time>2019-02-12T14:41:57Z</time>
      </trkpt>
      <trkpt lat="49.61069" lon="5.02035">
        <ele>216.43</ele>
        <time>2019-02-12T14:42:08Z</time>
      </trkpt>
      <trkpt lat="49.61067" lon="5.0202">
        <ele>217.4</ele>
        <time>2019-02-12T14:42:19Z</time>
      </trkpt>
      <trkpt lat="49.61062" lon="5.02003">
        <ele>218.36</ele>
        <time>2019-02-12T14:42:31Z</time>
      </trkpt>
      <trkpt lat="49.61056" lon="5.01982">
        <ele>219.8</ele>
        <time>2019-02-12T14:42:46Z</time>
      </trkpt>
      <trkpt lat="49.61054" lon="5.01967">
        <ele>218.84</ele>
        <time>2019-02-12T14:42:58Z</time>
      </trkpt>
      <trkpt lat="49.61048" lon="5.01949">
        <ele>218.36</ele>
        <time>2019-02-12T14:43:11Z</time>
      </trkpt>
      <trkpt lat="49.61047" lon="5.01946">
        <ele>219.32</ele>
        <time>2019-02-12T14:43:13Z</time>
      </trkpt>
      <trkpt lat="49.61043" lon="5.01925">
        <ele>221.72</ele>
        <time>2019-02-12T14:43:27Z</time>
      </trkpt>
      <trkpt lat="49.6104" lon="5.01901">
        <ele>223.64</ele>
        <time>2019-02-12T14:43:42Z</time>
      </trkpt>
      <trkpt lat="49.61037" lon="5.01871">
        <ele>222.2</ele>
        <time>2019-02-12T14:43:59Z</time>
      </trkpt>
      <trkpt lat="49.61034" lon="5.01846">
        <ele>222.68</ele>
        <time>2019-02-12T14:44:15Z</time>
      </trkpt>
      <trkpt lat="49.61031" lon="5.01823">
        <ele>222.2</ele>
        <time>2019-02-12T14:44:30Z</time>
      </trkpt>
      <trkpt lat="49.61027" lon="5.01795">
        <ele>223.16</ele>
        <time>2019-02-12T14:44:48Z</time>
      </trkpt>
      <trkpt lat="49.61026" lon="5.01773">
        <ele>223.64</ele>
        <time>2019-02-12T14:45:02Z</time>
      </trkpt>
      <trkpt lat="49.61019" lon="5.01746">
        <ele>223.64</ele>
        <time>2019-02-12T14:45:19Z</time>
      </trkpt>
      <trkpt lat="49.61013" lon="5.01718">
        <ele>226.53</ele>
        <time>2019-02-12T14:45:37Z</time>
      </trkpt>
      <trkpt lat="49.61009" lon="5.01699">
        <ele>229.41</ele>
        <time>2019-02-12T14:45:51Z</time>
      </trkpt>
      <trkpt lat="49.61008" lon="5.01677">
        <ele>228.93</ele>
        <time>2019-02-12T14:46:05Z</time>
      </trkpt>
      <trkpt lat="49.61008" lon="5.01652">
        <ele>228.45</ele>
        <time>2019-02-12T14:46:21Z</time>
      </trkpt>
      <trkpt lat="49.61013" lon="5.01624">
        <ele>230.37</ele>
        <time>2019-02-12T14:46:38Z</time>
      </trkpt>
      <trkpt lat="49.61019" lon="5.01605">
        <ele>229.89</ele>
        <time>2019-02-12T14:46:53Z</time>
      </trkpt>
      <trkpt lat="49.61023" lon="5.01586">
        <ele>229.89</ele>
        <time>2019-02-12T14:47:07Z</time>
      </trkpt>
      <trkpt lat="49.61025" lon="5.01562">
        <ele>232.3</ele>
        <time>2019-02-12T14:47:19Z</time>
      </trkpt>
      <trkpt lat="49.61026" lon="5.01544">
        <ele>233.26</ele>
        <time>2019-02-12T14:47:33Z</time>
      </trkpt>
      <trkpt lat="49.61027" lon="5.01523">
        <ele>233.74</ele>
        <time>2019-02-12T14:47:48Z</time>
      </trkpt>
      <trkpt lat="49.61027" lon="5.01505">
        <ele>233.74</ele>
        <time>2019-02-12T14:48:01Z</time>
      </trkpt>
      <trkpt lat="49.61029" lon="5.0149">
        <ele>232.3</ele>
        <time>2019-02-12T14:48:13Z</time>
      </trkpt>
      <trkpt lat="49.61028" lon="5.01476">
        <ele>232.3</ele>
        <time>2019-02-12T14:48:24Z</time>
      </trkpt>
      <trkpt lat="49.61028" lon="5.01462">
        <ele>234.7</ele>
        <time>2019-02-12T14:48:38Z</time>
      </trkpt>
      <trkpt lat="49.61027" lon="5.01448">
        <ele>238.06</ele>
        <time>2019-02-12T14:48:55Z</time>
      </trkpt>
      <trkpt lat="49.61027" lon="5.01436">
        <ele>239.99</ele>
        <time>2019-02-12T14:49:10Z</time>
      </trkpt>
      <trkpt lat="49.61025" lon="5.01422">
        <ele>240.47</ele>
        <time>2019-02-12T14:49:25Z</time>
      </trkpt>
      <trkpt lat="49.61023" lon="5.01409">
        <ele>242.39</ele>
        <time>2019-02-12T14:49:40Z</time>
      </trkpt>
      <trkpt lat="49.61018" lon="5.01395">
        <ele>244.79</ele>
        <time>2019-02-12T14:49:57Z</time>
      </trkpt>
      <trkpt lat="49.61015" lon="5.01376">
        <ele>244.79</ele>
        <time>2019-02-12T14:50:11Z</time>
      </trkpt>
      <trkpt lat="49.60997" lon="5.01324">
        <ele>239.02</ele>
        <time>2019-02-12T14:50:25Z</time>
      </trkpt>
      <trkpt lat="49.60992" lon="5.01311">
        <ele>237.1</ele>
        <time>2019-02-12T14:50:29Z</time>
      </trkpt>
      <trkpt lat="49.60978" lon="5.01265">
        <ele>231.81</ele>
        <time>2019-02-12T14:50:45Z</time>
      </trkpt>
      <trkpt lat="49.60971" lon="5.01237">
        <ele>230.37</ele>
        <time>2019-02-12T14:51:00Z</time>
      </trkpt>
      <trkpt lat="49.60967" lon="5.01217">
        <ele>229.41</ele>
        <time>2019-02-12T14:51:13Z</time>
      </trkpt>
      <trkpt lat="49.60962" lon="5.01193">
        <ele>228.93</ele>
        <time>2019-02-12T14:51:28Z</time>
      </trkpt>
      <trkpt lat="49.60957" lon="5.01168">
        <ele>227.97</ele>
        <time>2019-02-12T14:51:43Z</time>
      </trkpt>
      <trkpt lat="49.60953" lon="5.01145">
        <ele>226.53</ele>
        <time>2019-02-12T14:51:57Z</time>
      </trkpt>
      <trkpt lat="49.60949" lon="5.01125">
        <ele>226.53</ele>
        <time>2019-02-12T14:52:10Z</time>
      </trkpt>
      <trkpt lat="49.60945" lon="5.01106">
        <ele>227.49</ele>
        <time>2019-02-12T14:52:23Z</time>
      </trkpt>
      <trkpt lat="49.60936" lon="5.01081">
        <ele>227.49</ele>
        <time>2019-02-12T14:52:38Z</time>
      </trkpt>
      <trkpt lat="49.60933" lon="5.01057">
        <ele>228.45</ele>
        <time>2019-02-12T14:52:54Z</time>
      </trkpt>
      <trkpt lat="49.60928" lon="5.01038">
        <ele>227.01</ele>
        <time>2019-02-12T14:53:08Z</time>
      </trkpt>
      <trkpt lat="49.60923" lon="5.01008">
        <ele>226.53</ele>
        <time>2019-02-12T14:53:24Z</time>
      </trkpt>
      <trkpt lat="49.60923" lon="5.00995">
        <ele>227.01</ele>
        <time>2019-02-12T14:53:40Z</time>
      </trkpt>
      <trkpt lat="49.60919" lon="5.0098">
        <ele>225.09</ele>
        <time>2019-02-12T14:53:54Z</time>
      </trkpt>
      <trkpt lat="49.6092" lon="5.00962">
        <ele>226.53</ele>
        <time>2019-02-12T14:54:11Z</time>
      </trkpt>
      <trkpt lat="49.60923" lon="5.00961">
        <ele>225.09</ele>
        <time>2019-02-12T14:54:25Z</time>
      </trkpt>
      <trkpt lat="49.60928" lon="5.00956">
        <ele>222.68</ele>
        <time>2019-02-12T14:54:40Z</time>
      </trkpt>
      <trkpt lat="49.60934" lon="5.00947">
        <ele>223.64</ele>
        <time>2019-02-12T14:54:56Z</time>
      </trkpt>
      <trkpt lat="49.60941" lon="5.0092">
        <ele>227.01</ele>
        <time>2019-02-12T14:55:12Z</time>
      </trkpt>
      <trkpt lat="49.60953" lon="5.00888">
        <ele>232.78</ele>
        <time>2019-02-12T14:55:31Z</time>
      </trkpt>
      <trkpt lat="49.60959" lon="5.00872">
        <ele>236.14</ele>
        <time>2019-02-12T14:55:46Z</time>
      </trkpt>
      <trkpt lat="49.60963" lon="5.0086">
        <ele>237.1</ele>
        <time>2019-02-12T14:56:02Z</time>
      </trkpt>
      <trkpt lat="49.60965" lon="5.00851">
        <ele>239.99</ele>
        <time>2019-02-12T14:56:17Z</time>
      </trkpt>
      <trkpt lat="49.6097" lon="5.00822">
        <ele>238.54</ele>
        <time>2019-02-12T14:56:34Z</time>
      </trkpt>
      <trkpt lat="49.60972" lon="5.00795">
        <ele>239.99</ele>
        <time>2019-02-12T14:56:48Z</time>
      </trkpt>
      <trkpt lat="49.60978" lon="5.00772">
        <ele>247.2</ele>
        <time>2019-02-12T14:57:03Z</time>
      </trkpt>
      <trkpt lat="49.60982" lon="5.00756">
        <ele>252</ele>
        <time>2019-02-12T14:57:21Z</time>
      </trkpt>
      <trkpt lat="49.60984" lon="5.00746">
        <ele>254.41</ele>
        <time>2019-02-12T14:57:35Z</time>
      </trkpt>
      <trkpt lat="49.60986" lon="5.00729">
        <ele>254.41</ele>
        <time>2019-02-12T14:57:50Z</time>
      </trkpt>
      <trkpt lat="49.60987" lon="5.0071">
        <ele>252.96</ele>
        <time>2019-02-12T14:58:04Z</time>
      </trkpt>
      <trkpt lat="49.60985" lon="5.00674">
        <ele>250.56</ele>
        <time>2019-02-12T14:58:21Z</time>
      </trkpt>
      <trkpt lat="49.60985" lon="5.0065">
        <ele>251.52</ele>
        <time>2019-02-12T14:58:34Z</time>
      </trkpt>
      <trkpt lat="49.60984" lon="5.00616">
        <ele>251.04</ele>
        <time>2019-02-12T14:58:49Z</time>
      </trkpt>
      <trkpt lat="49.60986" lon="5.00588">
        <ele>248.64</ele>
        <time>2019-02-12T14:59:05Z</time>
      </trkpt>
      <trkpt lat="49.60987" lon="5.00562">
        <ele>246.72</ele>
        <time>2019-02-12T14:59:21Z</time>
      </trkpt>
      <trkpt lat="49.60988" lon="5.00542">
        <ele>246.72</ele>
        <time>2019-02-12T14:59:37Z</time>
      </trkpt>
      <trkpt lat="49.60992" lon="5.0052">
        <ele>247.68</ele>
        <time>2019-02-12T14:59:52Z</time>
      </trkpt>
      <trkpt lat="49.60996" lon="5.00511">
        <ele>249.12</ele>
        <time>2019-02-12T15:00:07Z</time>
      </trkpt>
      <trkpt lat="49.61009" lon="5.00493">
        <ele>248.64</ele>
        <time>2019-02-12T15:00:26Z</time>
      </trkpt>
      <trkpt lat="49.61024" lon="5.0047">
        <ele>245.27</ele>
        <time>2019-02-12T15:00:40Z</time>
      </trkpt>
      <trkpt lat="49.61032" lon="5.00461">
        <ele>243.83</ele>
        <time>2019-02-12T15:00:53Z</time>
      </trkpt>
      <trkpt lat="49.61039" lon="5.00455">
        <ele>243.83</ele>
        <time>2019-02-12T15:01:10Z</time>
      </trkpt>
      <trkpt lat="49.6105" lon="5.00442">
        <ele>245.27</ele>
        <time>2019-02-12T15:01:23Z</time>
      </trkpt>
      <trkpt lat="49.61066" lon="5.00417">
        <ele>245.75</ele>
        <time>2019-02-12T15:01:39Z</time>
      </trkpt>
      <trkpt lat="49.61074" lon="5.00401">
        <ele>247.68</ele>
        <time>2019-02-12T15:01:55Z</time>
      </trkpt>
      <trkpt lat="49.61082" lon="5.00381">
        <ele>250.08</ele>
        <time>2019-02-12T15:02:08Z</time>
      </trkpt>
      <trkpt lat="49.6109" lon="5.00353">
        <ele>249.12</ele>
        <time>2019-02-12T15:02:22Z</time>
      </trkpt>
      <trkpt lat="49.61098" lon="5.00327">
        <ele>249.12</ele>
        <time>2019-02-12T15:02:37Z</time>
      </trkpt>
      <trkpt lat="49.61103" lon="5.003">
        <ele>249.6</ele>
        <time>2019-02-12T15:02:52Z</time>
      </trkpt>
      <trkpt lat="49.61108" lon="5.00274">
        <ele>250.56</ele>
        <time>2019-02-12T15:03:08Z</time>
      </trkpt>
      <trkpt lat="49.61116" lon="5.00243">
        <ele>254.41</ele>
        <time>2019-02-12T15:03:24Z</time>
      </trkpt>
      <trkpt lat="49.61121" lon="5.0021">
        <ele>259.21</ele>
        <time>2019-02-12T15:03:42Z</time>
      </trkpt>
      <trkpt lat="49.61127" lon="5.00187">
        <ele>262.1</ele>
        <time>2019-02-12T15:03:57Z</time>
      </trkpt>
      <trkpt lat="49.61131" lon="5.00169">
        <ele>260.65</ele>
        <time>2019-02-12T15:04:11Z</time>
      </trkpt>
      <trkpt lat="49.61134" lon="5.00142">
        <ele>260.65</ele>
        <time>2019-02-12T15:04:26Z</time>
      </trkpt>
      <trkpt lat="49.61136" lon="5.00122">
        <ele>260.17</ele>
        <time>2019-02-12T15:04:40Z</time>
      </trkpt>
      <trkpt lat="49.61137" lon="5.00098">
        <ele>261.14</ele>
        <time>2019-02-12T15:04:56Z</time>
      </trkpt>
      <trkpt lat="49.61144" lon="5.00075">
        <ele>259.69</ele>
        <time>2019-02-12T15:05:11Z</time>
      </trkpt>
      <trkpt lat="49.61147" lon="5.00045">
        <ele>260.17</ele>
        <time>2019-02-12T15:05:28Z</time>
      </trkpt>
      <trkpt lat="49.6115" lon="5.00018">
        <ele>260.17</ele>
        <time>2019-02-12T15:05:44Z</time>
      </trkpt>
      <trkpt lat="49.61152" lon="4.99993">
        <ele>259.69</ele>
        <time>2019-02-12T15:06:00Z</time>
      </trkpt>
      <trkpt lat="49.61157" lon="4.99974">
        <ele>260.17</ele>
        <time>2019-02-12T15:06:13Z</time>
      </trkpt>
      <trkpt lat="49.61163" lon="4.99959">
        <ele>260.65</ele>
        <time>2019-02-12T15:06:25Z</time>
      </trkpt>
      <trkpt lat="49.61171" lon="4.99928">
        <ele>259.21</ele>
        <time>2019-02-12T15:06:42Z</time>
      </trkpt>
      <trkpt lat="49.61175" lon="4.99913">
        <ele>258.73</ele>
        <time>2019-02-12T15:06:55Z</time>
      </trkpt>
      <trkpt lat="49.61182" lon="4.99912">
        <ele>256.33</ele>
        <time>2019-02-12T15:07:09Z</time>
      </trkpt>
      <trkpt lat="49.61188" lon="4.99922">
        <ele>254.89</ele>
        <time>2019-02-12T15:07:20Z</time>
      </trkpt>
      <trkpt lat="49.61196" lon="4.99943">
        <ele>252.48</ele>
        <time>2019-02-12T15:07:35Z</time>
      </trkpt>
      <trkpt lat="49.612" lon="4.99963">
        <ele>248.64</ele>
        <time>2019-02-12T15:07:48Z</time>
      </trkpt>
      <trkpt lat="49.61207" lon="4.99988">
        <ele>245.75</ele>
        <time>2019-02-12T15:08:04Z</time>
      </trkpt>
      <trkpt lat="49.61219" lon="5.0001">
        <ele>244.79</ele>
        <time>2019-02-12T15:08:20Z</time>
      </trkpt>
      <trkpt lat="49.61229" lon="5.00022">
        <ele>248.16</ele>
        <time>2019-02-12T15:08:32Z</time>
      </trkpt>
      <trkpt lat="49.61236" lon="5.00027">
        <ele>252.96</ele>
        <time>2019-02-12T15:08:46Z</time>
      </trkpt>
      <trkpt lat="49.61242" lon="5.00036">
        <ele>249.6</ele>
        <time>2019-02-12T15:09:00Z</time>
      </trkpt>
      <trkpt lat="49.61248" lon="5.00046">
        <ele>247.2</ele>
        <time>2019-02-12T15:09:13Z</time>
      </trkpt>
      <trkpt lat="49.61255" lon="5.00057">
        <ele>248.64</ele>
        <time>2019-02-12T15:09:31Z</time>
      </trkpt>
      <trkpt lat="49.61263" lon="5.00064">
        <ele>249.6</ele>
        <time>2019-02-12T15:09:45Z</time>
      </trkpt>
      <trkpt lat="49.61273" lon="5.00073">
        <ele>253.44</ele>
        <time>2019-02-12T15:10:01Z</time>
      </trkpt>
      <trkpt lat="49.61283" lon="5.00084">
        <ele>254.89</ele>
        <time>2019-02-12T15:10:16Z</time>
      </trkpt>
      <trkpt lat="49.61292" lon="5.00099">
        <ele>253.44</ele>
        <time>2019-02-12T15:10:31Z</time>
      </trkpt>
      <trkpt lat="49.61304" lon="5.0011">
        <ele>250.08</ele>
        <time>2019-02-12T15:10:44Z</time>
      </trkpt>
      <trkpt lat="49.6132" lon="5.00122">
        <ele>250.08</ele>
        <time>2019-02-12T15:10:58Z</time>
      </trkpt>
      <trkpt lat="49.61326" lon="5.0013">
        <ele>253.44</ele>
        <time>2019-02-12T15:11:10Z</time>
      </trkpt>
      <trkpt lat="49.61334" lon="5.00142">
        <ele>251.04</ele>
        <time>2019-02-12T15:11:24Z</time>
      </trkpt>
      <trkpt lat="49.61342" lon="5.00144">
        <ele>253.44</ele>
        <time>2019-02-12T15:11:36Z</time>
      </trkpt>
      <trkpt lat="49.61351" lon="5.0014">
        <ele>262.1</ele>
        <time>2019-02-12T15:11:54Z</time>
      </trkpt>
      <trkpt lat="49.61351" lon="5.0012">
        <ele>261.14</ele>
        <time>2019-02-12T15:12:07Z</time>
      </trkpt>
      <trkpt lat="49.61353" lon="5.00102">
        <ele>260.17</ele>
        <time>2019-02-12T15:12:22Z</time>
      </trkpt>
      <trkpt lat="49.6135" lon="5.00071">
        <ele>264.02</ele>
        <time>2019-02-12T15:12:35Z</time>
      </trkpt>
      <trkpt lat="49.61346" lon="5.00052">
        <ele>262.1</ele>
        <time>2019-02-12T15:12:50Z</time>
      </trkpt>
      <trkpt lat="49.61344" lon="5.00032">
        <ele>260.65</ele>
        <time>2019-02-12T15:13:04Z</time>
      </trkpt>
      <trkpt lat="49.61346" lon="4.99995">
        <ele>268.83</ele>
        <time>2019-02-12T15:13:18Z</time>
      </trkpt>
      <trkpt lat="49.61347" lon="4.99981">
        <ele>269.79</ele>
        <time>2019-02-12T15:13:31Z</time>
      </trkpt>
      <trkpt lat="49.61351" lon="4.99961">
        <ele>268.35</ele>
        <time>2019-02-12T15:13:47Z</time>
      </trkpt>
      <trkpt lat="49.61353" lon="4.99932">
        <ele>270.27</ele>
        <time>2019-02-12T15:14:01Z</time>
      </trkpt>
      <trkpt lat="49.61356" lon="4.99906">
        <ele>273.15</ele>
        <time>2019-02-12T15:14:14Z</time>
      </trkpt>
      <trkpt lat="49.61355" lon="4.99883">
        <ele>272.67</ele>
        <time>2019-02-12T15:14:29Z</time>
      </trkpt>
      <trkpt lat="49.61355" lon="4.99864">
        <ele>273.63</ele>
        <time>2019-02-12T15:14:40Z</time>
      </trkpt>
      <trkpt lat="49.61358" lon="4.9984">
        <ele>273.15</ele>
        <time>2019-02-12T15:14:56Z</time>
      </trkpt>
      <trkpt lat="49.61357" lon="4.99821">
        <ele>273.15</ele>
        <time>2019-02-12T15:15:09Z</time>
      </trkpt>
      <trkpt lat="49.6136" lon="4.99802">
        <ele>268.83</ele>
        <time>2019-02-12T15:15:23Z</time>
      </trkpt>
      <trkpt lat="49.61362" lon="4.99778">
        <ele>264.5</ele>
        <time>2019-02-12T15:15:39Z</time>
      </trkpt>
      <trkpt lat="49.61363" lon="4.99747">
        <ele>269.31</ele>
        <time>2019-02-12T15:15:55Z</time>
      </trkpt>
      <trkpt lat="49.61366" lon="4.99732">
        <ele>269.31</ele>
        <time>2019-02-12T15:16:08Z</time>
      </trkpt>
      <trkpt lat="49.61368" lon="4.99713">
        <ele>269.79</ele>
        <time>2019-02-12T15:16:22Z</time>
      </trkpt>
      <trkpt lat="49.6137" lon="4.99698">
        <ele>266.9</ele>
        <time>2019-02-12T15:16:35Z</time>
      </trkpt>
      <trkpt lat="49.61372" lon="4.9967">
        <ele>264.98</ele>
        <time>2019-02-12T15:16:48Z</time>
      </trkpt>
      <trkpt lat="49.61374" lon="4.99652">
        <ele>266.9</ele>
        <time>2019-02-12T15:16:59Z</time>
      </trkpt>
      <trkpt lat="49.61376" lon="4.99626">
        <ele>269.31</ele>
        <time>2019-02-12T15:17:14Z</time>
      </trkpt>
      <trkpt lat="49.61378" lon="4.99599">
        <ele>270.27</ele>
        <time>2019-02-12T15:17:28Z</time>
      </trkpt>
      <trkpt lat="49.6138" lon="4.9958">
        <ele>270.27</ele>
        <time>2019-02-12T15:17:41Z</time>
      </trkpt>
      <trkpt lat="49.61384" lon="4.99564">
        <ele>267.38</ele>
        <time>2019-02-12T15:17:54Z</time>
      </trkpt>
      <trkpt lat="49.61391" lon="4.99548">
        <ele>266.42</ele>
        <time>2019-02-12T15:18:08Z</time>
      </trkpt>
      <trkpt lat="49.61395" lon="4.99536">
        <ele>268.83</ele>
        <time>2019-02-12T15:18:15Z</time>
      </trkpt>
      <trkpt lat="49.61403" lon="4.99514">
        <ele>271.23</ele>
        <time>2019-02-12T15:18:30Z</time>
      </trkpt>
      <trkpt lat="49.6141" lon="4.99494">
        <ele>272.67</ele>
        <time>2019-02-12T15:18:43Z</time>
      </trkpt>
      <trkpt lat="49.61417" lon="4.99475">
        <ele>273.63</ele>
        <time>2019-02-12T15:18:57Z</time>
      </trkpt>
      <trkpt lat="49.61422" lon="4.99458">
        <ele>273.63</ele>
        <time>2019-02-12T15:19:10Z</time>
      </trkpt>
      <trkpt lat="49.61432" lon="4.99432">
        <ele>274.59</ele>
        <time>2019-02-12T15:19:26Z</time>
      </trkpt>
      <trkpt lat="49.61439" lon="4.99418">
        <ele>273.15</ele>
        <time>2019-02-12T15:19:39Z</time>
      </trkpt>
      <trkpt lat="49.61443" lon="4.99402">
        <ele>273.15</ele>
        <time>2019-02-12T15:19:52Z</time>
      </trkpt>
      <trkpt lat="49.61446" lon="4.99391">
        <ele>274.59</ele>
        <time>2019-02-12T15:20:07Z</time>
      </trkpt>
      <trkpt lat="49.61451" lon="4.99367">
        <ele>275.56</ele>
        <time>2019-02-12T15:20:22Z</time>
      </trkpt>
      <trkpt lat="49.61451" lon="4.99339">
        <ele>276.04</ele>
        <time>2019-02-12T15:20:35Z</time>
      </trkpt>
      <trkpt lat="49.61453" lon="4.99319">
        <ele>276.04</ele>
        <time>2019-02-12T15:20:48Z</time>
      </trkpt>
      <trkpt lat="49.61455" lon="4.99298">
        <ele>277</ele>
        <time>2019-02-12T15:21:01Z</time>
      </trkpt>
      <trkpt lat="49.61454" lon="4.99276">
        <ele>277.48</ele>
        <time>2019-02-12T15:21:16Z</time>
      </trkpt>
      <trkpt lat="49.61456" lon="4.99257">
        <ele>280.84</ele>
        <time>2019-02-12T15:21:29Z</time>
      </trkpt>
      <trkpt lat="49.6146" lon="4.99235">
        <ele>283.25</ele>
        <time>2019-02-12T15:21:42Z</time>
      </trkpt>
      <trkpt lat="49.61462" lon="4.99229">
        <ele>284.21</ele>
        <time>2019-02-12T15:21:56Z</time>
      </trkpt>
      <trkpt lat="49.61469" lon="4.99223">
        <ele>283.25</ele>
        <time>2019-02-12T15:22:10Z</time>
      </trkpt>
      <trkpt lat="49.61481" lon="4.99214">
        <ele>281.8</ele>
        <time>2019-02-12T15:22:25Z</time>
      </trkpt>
      <trkpt lat="49.61488" lon="4.99212">
        <ele>283.25</ele>
        <time>2019-02-12T15:22:42Z</time>
      </trkpt>
      <trkpt lat="49.61501" lon="4.992">
        <ele>282.77</ele>
        <time>2019-02-12T15:22:59Z</time>
      </trkpt>
      <trkpt lat="49.61511" lon="4.99183">
        <ele>284.69</ele>
        <time>2019-02-12T15:23:12Z</time>
      </trkpt>
      <trkpt lat="49.61521" lon="4.99167">
        <ele>286.61</ele>
        <time>2019-02-12T15:23:26Z</time>
      </trkpt>
      <trkpt lat="49.61528" lon="4.99162">
        <ele>293.34</ele>
        <time>2019-02-12T15:23:44Z</time>
      </trkpt>
      <trkpt lat="49.6153" lon="4.99167">
        <ele>295.74</ele>
        <time>2019-02-12T15:24:08Z</time>
      </trkpt>
      <trkpt lat="49.61531" lon="4.99168">
        <ele>296.22</ele>
        <time>2019-02-12T15:24:28Z</time>
      </trkpt>
      <trkpt lat="49.61534" lon="4.99171">
        <ele>296.22</ele>
        <time>2019-02-12T15:24:50Z</time>
      </trkpt>
      <trkpt lat="49.61536" lon="4.9917">
        <ele>298.15</ele>
        <time>2019-02-12T15:25:18Z</time>
      </trkpt>
      <trkpt lat="49.61536" lon="4.99171">
        <ele>298.63</ele>
        <time>2019-02-12T15:25:40Z</time>
      </trkpt>
      <trkpt lat="49.61537" lon="4.99164">
        <ele>299.11</ele>
        <time>2019-02-12T15:25:55Z</time>
      </trkpt>
      <trkpt lat="49.61542" lon="4.9914">
        <ele>299.11</ele>
        <time>2019-02-12T15:26:08Z</time>
      </trkpt>
      <trkpt lat="49.61551" lon="4.99112">
        <ele>300.07</ele>
        <time>2019-02-12T15:26:22Z</time>
      </trkpt>
      <trkpt lat="49.61557" lon="4.99088">
        <ele>300.55</ele>
        <time>2019-02-12T15:26:38Z</time>
      </trkpt>
      <trkpt lat="49.61564" lon="4.99064">
        <ele>300.55</ele>
        <time>2019-02-12T15:26:53Z</time>
      </trkpt>
      <trkpt lat="49.6157" lon="4.99045">
        <ele>300.07</ele>
        <time>2019-02-12T15:27:08Z</time>
      </trkpt>
      <trkpt lat="49.61574" lon="4.99036">
        <ele>300.55</ele>
        <time>2019-02-12T15:27:19Z</time>
      </trkpt>
      <trkpt lat="49.61581" lon="4.99015">
        <ele>301.03</ele>
        <time>2019-02-12T15:27:32Z</time>
      </trkpt>
      <trkpt lat="49.61589" lon="4.98991">
        <ele>299.59</ele>
        <time>2019-02-12T15:27:49Z</time>
      </trkpt>
      <trkpt lat="49.61598" lon="4.9897">
        <ele>299.11</ele>
        <time>2019-02-12T15:28:03Z</time>
      </trkpt>
      <trkpt lat="49.61604" lon="4.98954">
        <ele>301.99</ele>
        <time>2019-02-12T15:28:19Z</time>
      </trkpt>
      <trkpt lat="49.61611" lon="4.98939">
        <ele>300.07</ele>
        <time>2019-02-12T15:28:35Z</time>
      </trkpt>
      <trkpt lat="49.61618" lon="4.98924">
        <ele>300.55</ele>
        <time>2019-02-12T15:28:48Z</time>
      </trkpt>
      <trkpt lat="49.61623" lon="4.98905">
        <ele>299.11</ele>
        <time>2019-02-12T15:29:03Z</time>
      </trkpt>
      <trkpt lat="49.61635" lon="4.98874">
        <ele>298.63</ele>
        <time>2019-02-12T15:29:20Z</time>
      </trkpt>
      <trkpt lat="49.61641" lon="4.9886">
        <ele>297.67</ele>
        <time>2019-02-12T15:29:32Z</time>
      </trkpt>
      <trkpt lat="49.61651" lon="4.98842">
        <ele>296.22</ele>
        <time>2019-02-12T15:29:45Z</time>
      </trkpt>
      <trkpt lat="49.61658" lon="4.98824">
        <ele>295.74</ele>
        <time>2019-02-12T15:29:58Z</time>
      </trkpt>
      <trkpt lat="49.61669" lon="4.98803">
        <ele>297.18</ele>
        <time>2019-02-12T15:30:13Z</time>
      </trkpt>
      <trkpt lat="49.61677" lon="4.98787">
        <ele>296.22</ele>
        <time>2019-02-12T15:30:26Z</time>
      </trkpt>
      <trkpt lat="49.61683" lon="4.98772">
        <ele>296.7</ele>
        <time>2019-02-12T15:30:41Z</time>
      </trkpt>
      <trkpt lat="49.61692" lon="4.98756">
        <ele>297.67</ele>
        <time>2019-02-12T15:30:56Z</time>
      </trkpt>
      <trkpt lat="49.61702" lon="4.98737">
        <ele>296.22</ele>
        <time>2019-02-12T15:31:09Z</time>
      </trkpt>
      <trkpt lat="49.61714" lon="4.98716">
        <ele>294.3</ele>
        <time>2019-02-12T15:31:26Z</time>
      </trkpt>
      <trkpt lat="49.61721" lon="4.98704">
        <ele>291.42</ele>
        <time>2019-02-12T15:31:41Z</time>
      </trkpt>
      <trkpt lat="49.61724" lon="4.98692">
        <ele>288.53</ele>
        <time>2019-02-12T15:31:53Z</time>
      </trkpt>
      <trkpt lat="49.61727" lon="4.98679">
        <ele>289.01</ele>
        <time>2019-02-12T15:32:09Z</time>
      </trkpt>
      <trkpt lat="49.61729" lon="4.98656">
        <ele>286.61</ele>
        <time>2019-02-12T15:32:23Z</time>
      </trkpt>
      <trkpt lat="49.61733" lon="4.98625">
        <ele>282.77</ele>
        <time>2019-02-12T15:32:38Z</time>
      </trkpt>
      <trkpt lat="49.61738" lon="4.98606">
        <ele>278.92</ele>
        <time>2019-02-12T15:32:52Z</time>
      </trkpt>
      <trkpt lat="49.61742" lon="4.98596">
        <ele>280.84</ele>
        <time>2019-02-12T15:33:05Z</time>
      </trkpt>
      <trkpt lat="49.61746" lon="4.98584">
        <ele>280.36</ele>
        <time>2019-02-12T15:33:17Z</time>
      </trkpt>
      <trkpt lat="49.61749" lon="4.98561">
        <ele>276.52</ele>
        <time>2019-02-12T15:33:31Z</time>
      </trkpt>
      <trkpt lat="49.61752" lon="4.98543">
        <ele>276.04</ele>
        <time>2019-02-12T15:33:46Z</time>
      </trkpt>
      <trkpt lat="49.61758" lon="4.98516">
        <ele>276.52</ele>
        <time>2019-02-12T15:34:01Z</time>
      </trkpt>
      <trkpt lat="49.61762" lon="4.98497">
        <ele>275.56</ele>
        <time>2019-02-12T15:34:13Z</time>
      </trkpt>
      <trkpt lat="49.61764" lon="4.98476">
        <ele>275.56</ele>
        <time>2019-02-12T15:34:26Z</time>
      </trkpt>
      <trkpt lat="49.6177" lon="4.98457">
        <ele>274.11</ele>
        <time>2019-02-12T15:34:36Z</time>
      </trkpt>
      <trkpt lat="49.61776" lon="4.98433">
        <ele>273.15</ele>
        <time>2019-02-12T15:34:49Z</time>
      </trkpt>
      <trkpt lat="49.61783" lon="4.9841">
        <ele>270.27</ele>
        <time>2019-02-12T15:35:02Z</time>
      </trkpt>
      <trkpt lat="49.61788" lon="4.9839">
        <ele>266.42</ele>
        <time>2019-02-12T15:35:15Z</time>
      </trkpt>
      <trkpt lat="49.61791" lon="4.9837">
        <ele>265.94</ele>
        <time>2019-02-12T15:35:26Z</time>
      </trkpt>
      <trkpt lat="49.61795" lon="4.98356">
        <ele>264.98</ele>
        <time>2019-02-12T15:35:38Z</time>
      </trkpt>
      <trkpt lat="49.61799" lon="4.98344">
        <ele>269.31</ele>
        <time>2019-02-12T15:35:54Z</time>
      </trkpt>
      <trkpt lat="49.618" lon="4.98326">
        <ele>269.31</ele>
        <time>2019-02-12T15:36:05Z</time>
      </trkpt>
      <trkpt lat="49.61804" lon="4.98312">
        <ele>268.35</ele>
        <time>2019-02-12T15:36:16Z</time>
      </trkpt>
      <trkpt lat="49.61806" lon="4.983">
        <ele>270.27</ele>
        <time>2019-02-12T15:36:28Z</time>
      </trkpt>
      <trkpt lat="49.61806" lon="4.98279">
        <ele>265.94</ele>
        <time>2019-02-12T15:36:42Z</time>
      </trkpt>
      <trkpt lat="49.61812" lon="4.98254">
        <ele>263.54</ele>
        <time>2019-02-12T15:36:57Z</time>
      </trkpt>
      <trkpt lat="49.6182" lon="4.98228">
        <ele>264.98</ele>
        <time>2019-02-12T15:37:11Z</time>
      </trkpt>
      <trkpt lat="49.61825" lon="4.98205">
        <ele>274.59</ele>
        <time>2019-02-12T15:37:27Z</time>
      </trkpt>
      <trkpt lat="49.61835" lon="4.98194">
        <ele>276.04</ele>
        <time>2019-02-12T15:37:40Z</time>
      </trkpt>
      <trkpt lat="49.61844" lon="4.98183">
        <ele>286.13</ele>
        <time>2019-02-12T15:37:54Z</time>
      </trkpt>
      <trkpt lat="49.61852" lon="4.98178">
        <ele>282.77</ele>
        <time>2019-02-12T15:38:11Z</time>
      </trkpt>
      <trkpt lat="49.61863" lon="4.98169">
        <ele>280.36</ele>
        <time>2019-02-12T15:38:28Z</time>
      </trkpt>
      <trkpt lat="49.61872" lon="4.98162">
        <ele>281.32</ele>
        <time>2019-02-12T15:38:43Z</time>
      </trkpt>
      <trkpt lat="49.61883" lon="4.9816">
        <ele>281.32</ele>
        <time>2019-02-12T15:38:59Z</time>
      </trkpt>
      <trkpt lat="49.61897" lon="4.9816">
        <ele>278.92</ele>
        <time>2019-02-12T15:39:17Z</time>
      </trkpt>
      <trkpt lat="49.61909" lon="4.98165">
        <ele>277</ele>
        <time>2019-02-12T15:39:34Z</time>
      </trkpt>
      <trkpt lat="49.61928" lon="4.98171">
        <ele>274.11</ele>
        <time>2019-02-12T15:39:49Z</time>
      </trkpt>
      <trkpt lat="49.61941" lon="4.98175">
        <ele>274.11</ele>
        <time>2019-02-12T15:40:04Z</time>
      </trkpt>
      <trkpt lat="49.61951" lon="4.98178">
        <ele>276.04</ele>
        <time>2019-02-12T15:40:21Z</time>
      </trkpt>
      <trkpt lat="49.61957" lon="4.98181">
        <ele>277</ele>
        <time>2019-02-12T15:40:37Z</time>
      </trkpt>
      <trkpt lat="49.61963" lon="4.98185">
        <ele>280.36</ele>
        <time>2019-02-12T15:40:52Z</time>
      </trkpt>
      <trkpt lat="49.61971" lon="4.98189">
        <ele>281.8</ele>
        <time>2019-02-12T15:41:09Z</time>
      </trkpt>
      <trkpt lat="49.61981" lon="4.98194">
        <ele>282.28</ele>
        <time>2019-02-12T15:41:27Z</time>
      </trkpt>
      <trkpt lat="49.6199" lon="4.98201">
        <ele>283.73</ele>
        <time>2019-02-12T15:41:46Z</time>
      </trkpt>
      <trkpt lat="49.62004" lon="4.98209">
        <ele>281.32</ele>
        <time>2019-02-12T15:42:00Z</time>
      </trkpt>
      <trkpt lat="49.62024" lon="4.98218">
        <ele>281.32</ele>
        <time>2019-02-12T15:42:16Z</time>
      </trkpt>
      <trkpt lat="49.6206" lon="4.98227">
        <ele>282.77</ele>
        <time>2019-02-12T15:42:33Z</time>
      </trkpt>
      <trkpt lat="49.62091" lon="4.98244">
        <ele>281.8</ele>
        <time>2019-02-12T15:42:52Z</time>
      </trkpt>
      <trkpt lat="49.62114" lon="4.98257">
        <ele>275.56</ele>
        <time>2019-02-12T15:43:07Z</time>
      </trkpt>
      <trkpt lat="49.62122" lon="4.98264">
        <ele>274.11</ele>
        <time>2019-02-12T15:43:15Z</time>
      </trkpt>
      <trkpt lat="49.62128" lon="4.98268">
        <ele>273.15</ele>
        <time>2019-02-12T15:43:21Z</time>
      </trkpt>
      <trkpt lat="49.62147" lon="4.9828">
        <ele>272.67</ele>
        <time>2019-02-12T15:43:39Z</time>
      </trkpt>
      <trkpt lat="49.6216" lon="4.98285">
        <ele>270.75</ele>
        <time>2019-02-12T15:43:53Z</time>
      </trkpt>
      <trkpt lat="49.62174" lon="4.98292">
        <ele>266.9</ele>
        <time>2019-02-12T15:44:10Z</time>
      </trkpt>
      <trkpt lat="49.62187" lon="4.983">
        <ele>261.14</ele>
        <time>2019-02-12T15:44:26Z</time>
      </trkpt>
      <trkpt lat="49.62198" lon="4.98303">
        <ele>258.25</ele>
        <time>2019-02-12T15:44:41Z</time>
      </trkpt>
      <trkpt lat="49.62213" lon="4.9831">
        <ele>252.96</ele>
        <time>2019-02-12T15:44:59Z</time>
      </trkpt>
      <trkpt lat="49.62225" lon="4.98315">
        <ele>251.52</ele>
        <time>2019-02-12T15:45:15Z</time>
      </trkpt>
      <trkpt lat="49.62243" lon="4.98325">
        <ele>249.12</ele>
        <time>2019-02-12T15:45:33Z</time>
      </trkpt>
      <trkpt lat="49.62259" lon="4.98341">
        <ele>252.96</ele>
        <time>2019-02-12T15:45:50Z</time>
      </trkpt>
      <trkpt lat="49.62274" lon="4.98358">
        <ele>254.89</ele>
        <time>2019-02-12T15:46:07Z</time>
      </trkpt>
      <trkpt lat="49.62286" lon="4.98379">
        <ele>254.41</ele>
        <time>2019-02-12T15:46:25Z</time>
      </trkpt>
      <trkpt lat="49.6229" lon="4.98386">
        <ele>255.37</ele>
        <time>2019-02-12T15:46:31Z</time>
      </trkpt>
      <trkpt lat="49.623" lon="4.98402">
        <ele>255.85</ele>
        <time>2019-02-12T15:46:46Z</time>
      </trkpt>
      <trkpt lat="49.62312" lon="4.98416">
        <ele>256.81</ele>
        <time>2019-02-12T15:47:01Z</time>
      </trkpt>
      <trkpt lat="49.62321" lon="4.98429">
        <ele>257.77</ele>
        <time>2019-02-12T15:47:16Z</time>
      </trkpt>
      <trkpt lat="49.62339" lon="4.98445">
        <ele>258.25</ele>
        <time>2019-02-12T15:47:35Z</time>
      </trkpt>
      <trkpt lat="49.62357" lon="4.98457">
        <ele>259.21</ele>
        <time>2019-02-12T15:47:55Z</time>
      </trkpt>
      <trkpt lat="49.62375" lon="4.98466">
        <ele>259.69</ele>
        <time>2019-02-12T15:48:14Z</time>
      </trkpt>
      <trkpt lat="49.62391" lon="4.98477">
        <ele>260.17</ele>
        <time>2019-02-12T15:48:33Z</time>
      </trkpt>
      <trkpt lat="49.62404" lon="4.98486">
        <ele>256.33</ele>
        <time>2019-02-12T15:48:50Z</time>
      </trkpt>
      <trkpt lat="49.62421" lon="4.98497">
        <ele>256.33</ele>
        <time>2019-02-12T15:49:09Z</time>
      </trkpt>
      <trkpt lat="49.62437" lon="4.98511">
        <ele>255.85</ele>
        <time>2019-02-12T15:49:28Z</time>
      </trkpt>
      <trkpt lat="49.62455" lon="4.98523">
        <ele>253.44</ele>
        <time>2019-02-12T15:49:48Z</time>
      </trkpt>
      <trkpt lat="49.62473" lon="4.98537">
        <ele>252.96</ele>
        <time>2019-02-12T15:50:07Z</time>
      </trkpt>
      <trkpt lat="49.62479" lon="4.98544">
        <ele>252</ele>
        <time>2019-02-12T15:50:21Z</time>
      </trkpt>
      <trkpt lat="49.62483" lon="4.98546">
        <ele>252</ele>
        <time>2019-02-12T15:50:29Z</time>
      </trkpt>
      <trkpt lat="49.62499" lon="4.98556">
        <ele>252.96</ele>
        <time>2019-02-12T15:50:46Z</time>
      </trkpt>
      <trkpt lat="49.6251" lon="4.98561">
        <ele>252</ele>
        <time>2019-02-12T15:51:02Z</time>
      </trkpt>
      <trkpt lat="49.62522" lon="4.98563">
        <ele>250.08</ele>
        <time>2019-02-12T15:51:19Z</time>
      </trkpt>
      <trkpt lat="49.62534" lon="4.98563">
        <ele>250.08</ele>
        <time>2019-02-12T15:51:35Z</time>
      </trkpt>
      <trkpt lat="49.62544" lon="4.98569">
        <ele>251.52</ele>
        <time>2019-02-12T15:51:50Z</time>
      </trkpt>
      <trkpt lat="49.62547" lon="4.98569">
        <ele>252.96</ele>
        <time>2019-02-12T15:52:08Z</time>
      </trkpt>
      <trkpt lat="49.62548" lon="4.98577">
        <ele>252.96</ele>
        <time>2019-02-12T15:52:23Z</time>
      </trkpt>
      <trkpt lat="49.62558" lon="4.98585">
        <ele>253.93</ele>
        <time>2019-02-12T15:52:40Z</time>
      </trkpt>
      <trkpt lat="49.62563" lon="4.9858">
        <ele>253.93</ele>
        <time>2019-02-12T15:52:54Z</time>
      </trkpt>
      <trkpt lat="49.62568" lon="4.98578">
        <ele>252.96</ele>
        <time>2019-02-12T15:53:00Z</time>
      </trkpt>
      <trkpt lat="49.62587" lon="4.98563">
        <ele>254.89</ele>
        <time>2019-02-12T15:53:19Z</time>
      </trkpt>
      <trkpt lat="49.62599" lon="4.98551">
        <ele>255.37</ele>
        <time>2019-02-12T15:53:34Z</time>
      </trkpt>
      <trkpt lat="49.62614" lon="4.98538">
        <ele>254.41</ele>
        <time>2019-02-12T15:53:51Z</time>
      </trkpt>
      <trkpt lat="49.6263" lon="4.98524">
        <ele>252</ele>
        <time>2019-02-12T15:54:11Z</time>
      </trkpt>
      <trkpt lat="49.62649" lon="4.98507">
        <ele>252.48</ele>
        <time>2019-02-12T15:54:30Z</time>
      </trkpt>
      <trkpt lat="49.62665" lon="4.98494">
        <ele>252.48</ele>
        <time>2019-02-12T15:54:48Z</time>
      </trkpt>
      <trkpt lat="49.62681" lon="4.98483">
        <ele>254.41</ele>
        <time>2019-02-12T15:55:05Z</time>
      </trkpt>
      <trkpt lat="49.62696" lon="4.98472">
        <ele>252.48</ele>
        <time>2019-02-12T15:55:23Z</time>
      </trkpt>
      <trkpt lat="49.62711" lon="4.98456">
        <ele>250.08</ele>
        <time>2019-02-12T15:55:40Z</time>
      </trkpt>
      <trkpt lat="49.62727" lon="4.98444">
        <ele>250.08</ele>
        <time>2019-02-12T15:55:57Z</time>
      </trkpt>
      <trkpt lat="49.6274" lon="4.98432">
        <ele>248.64</ele>
        <time>2019-02-12T15:56:14Z</time>
      </trkpt>
      <trkpt lat="49.62752" lon="4.98421">
        <ele>243.83</ele>
        <time>2019-02-12T15:56:31Z</time>
      </trkpt>
      <trkpt lat="49.62767" lon="4.98409">
        <ele>240.95</ele>
        <time>2019-02-12T15:56:48Z</time>
      </trkpt>
      <trkpt lat="49.62784" lon="4.98395">
        <ele>240.95</ele>
        <time>2019-02-12T15:57:06Z</time>
      </trkpt>
      <trkpt lat="49.628" lon="4.98382">
        <ele>237.1</ele>
        <time>2019-02-12T15:57:27Z</time>
      </trkpt>
      <trkpt lat="49.62812" lon="4.98373">
        <ele>234.22</ele>
        <time>2019-02-12T15:57:42Z</time>
      </trkpt>
      <trkpt lat="49.62824" lon="4.98364">
        <ele>233.26</ele>
        <time>2019-02-12T15:57:57Z</time>
      </trkpt>
      <trkpt lat="49.62834" lon="4.98358">
        <ele>228.93</ele>
        <time>2019-02-12T15:58:13Z</time>
      </trkpt>
      <trkpt lat="49.62849" lon="4.98352">
        <ele>226.05</ele>
        <time>2019-02-12T15:58:29Z</time>
      </trkpt>
      <trkpt lat="49.62869" lon="4.98346">
        <ele>225.09</ele>
        <time>2019-02-12T15:58:46Z</time>
      </trkpt>
      <trkpt lat="49.62884" lon="4.98343">
        <ele>223.16</ele>
        <time>2019-02-12T15:59:03Z</time>
      </trkpt>
      <trkpt lat="49.62895" lon="4.9834">
        <ele>223.64</ele>
        <time>2019-02-12T15:59:18Z</time>
      </trkpt>
      <trkpt lat="49.62911" lon="4.98333">
        <ele>224.12</ele>
        <time>2019-02-12T15:59:34Z</time>
      </trkpt>
      <trkpt lat="49.62927" lon="4.98326">
        <ele>227.49</ele>
        <time>2019-02-12T15:59:50Z</time>
      </trkpt>
      <trkpt lat="49.62943" lon="4.98325">
        <ele>224.61</ele>
        <time>2019-02-12T16:00:05Z</time>
      </trkpt>
      <trkpt lat="49.62955" lon="4.98328">
        <ele>220.76</ele>
        <time>2019-02-12T16:00:19Z</time>
      </trkpt>
      <trkpt lat="49.62965" lon="4.98333">
        <ele>213.07</ele>
        <time>2019-02-12T16:00:34Z</time>
      </trkpt>
      <trkpt lat="49.62977" lon="4.98331">
        <ele>207.78</ele>
        <time>2019-02-12T16:00:47Z</time>
      </trkpt>
      <trkpt lat="49.62987" lon="4.98329">
        <ele>207.78</ele>
        <time>2019-02-12T16:01:02Z</time>
      </trkpt>
      <trkpt lat="49.62989" lon="4.98329">
        <ele>210.19</ele>
        <time>2019-02-12T16:01:23Z</time>
      </trkpt>
      <trkpt lat="49.63002" lon="4.9833">
        <ele>212.11</ele>
        <time>2019-02-12T16:01:41Z</time>
      </trkpt>
      <trkpt lat="49.63018" lon="4.98332">
        <ele>208.74</ele>
        <time>2019-02-12T16:01:58Z</time>
      </trkpt>
      <trkpt lat="49.63025" lon="4.9833">
        <ele>208.74</ele>
        <time>2019-02-12T16:02:13Z</time>
      </trkpt>
      <trkpt lat="49.63039" lon="4.98333">
        <ele>208.26</ele>
        <time>2019-02-12T16:02:28Z</time>
      </trkpt>
      <trkpt lat="49.63056" lon="4.98335">
        <ele>205.38</ele>
        <time>2019-02-12T16:02:45Z</time>
      </trkpt>
      <trkpt lat="49.63071" lon="4.98333">
        <ele>205.86</ele>
        <time>2019-02-12T16:02:55Z</time>
      </trkpt>
      <trkpt lat="49.63089" lon="4.98336">
        <ele>205.86</ele>
        <time>2019-02-12T16:03:10Z</time>
      </trkpt>
      <trkpt lat="49.63099" lon="4.98337">
        <ele>210.19</ele>
        <time>2019-02-12T16:03:24Z</time>
      </trkpt>
      <trkpt lat="49.6311" lon="4.98336">
        <ele>214.03</ele>
        <time>2019-02-12T16:03:39Z</time>
      </trkpt>
      <trkpt lat="49.63122" lon="4.98336">
        <ele>214.51</ele>
        <time>2019-02-12T16:03:54Z</time>
      </trkpt>
      <trkpt lat="49.63143" lon="4.98343">
        <ele>209.22</ele>
        <time>2019-02-12T16:04:11Z</time>
      </trkpt>
      <trkpt lat="49.63163" lon="4.98345">
        <ele>205.86</ele>
        <time>2019-02-12T16:04:28Z</time>
      </trkpt>
      <trkpt lat="49.6318" lon="4.98348">
        <ele>207.3</ele>
        <time>2019-02-12T16:04:45Z</time>
      </trkpt>
      <trkpt lat="49.63195" lon="4.9835">
        <ele>206.34</ele>
        <time>2019-02-12T16:05:02Z</time>
      </trkpt>
      <trkpt lat="49.63209" lon="4.98347">
        <ele>205.86</ele>
        <time>2019-02-12T16:05:18Z</time>
      </trkpt>
      <trkpt lat="49.63223" lon="4.98349">
        <ele>207.3</ele>
        <time>2019-02-12T16:05:34Z</time>
      </trkpt>
      <trkpt lat="49.63236" lon="4.98352">
        <ele>205.86</ele>
        <time>2019-02-12T16:05:49Z</time>
      </trkpt>
      <trkpt lat="49.63253" lon="4.98356">
        <ele>204.9</ele>
        <time>2019-02-12T16:06:04Z</time>
      </trkpt>
      <trkpt lat="49.63263" lon="4.98356">
        <ele>203.46</ele>
        <time>2019-02-12T16:06:18Z</time>
      </trkpt>
      <trkpt lat="49.63275" lon="4.98357">
        <ele>203.94</ele>
        <time>2019-02-12T16:06:34Z</time>
      </trkpt>
      <trkpt lat="49.63293" lon="4.98356">
        <ele>202.01</ele>
        <time>2019-02-12T16:06:52Z</time>
      </trkpt>
      <trkpt lat="49.63314" lon="4.98359">
        <ele>200.57</ele>
        <time>2019-02-12T16:07:11Z</time>
      </trkpt>
      <trkpt lat="49.63333" lon="4.98359">
        <ele>202.01</ele>
        <time>2019-02-12T16:07:31Z</time>
      </trkpt>
      <trkpt lat="49.63342" lon="4.98348">
        <ele>204.9</ele>
        <time>2019-02-12T16:07:46Z</time>
      </trkpt>
      <trkpt lat="49.63362" lon="4.98337">
        <ele>203.94</ele>
        <time>2019-02-12T16:08:04Z</time>
      </trkpt>
      <trkpt lat="49.63365" lon="4.98336">
        <ele>202.98</ele>
        <time>2019-02-12T16:08:08Z</time>
      </trkpt>
      <trkpt lat="49.63384" lon="4.98327">
        <ele>198.65</ele>
        <time>2019-02-12T16:08:26Z</time>
      </trkpt>
      <trkpt lat="49.63398" lon="4.98313">
        <ele>197.69</ele>
        <time>2019-02-12T16:08:43Z</time>
      </trkpt>
      <trkpt lat="49.6341" lon="4.98298">
        <ele>197.69</ele>
        <time>2019-02-12T16:09:01Z</time>
      </trkpt>
      <trkpt lat="49.63422" lon="4.98284">
        <ele>196.25</ele>
        <time>2019-02-12T16:09:18Z</time>
      </trkpt>
      <trkpt lat="49.63436" lon="4.98268">
        <ele>196.25</ele>
        <time>2019-02-12T16:09:37Z</time>
      </trkpt>
      <trkpt lat="49.63444" lon="4.98255">
        <ele>194.32</ele>
        <time>2019-02-12T16:09:53Z</time>
      </trkpt>
      <trkpt lat="49.63451" lon="4.98246">
        <ele>193.84</ele>
        <time>2019-02-12T16:10:12Z</time>
      </trkpt>
      <trkpt lat="49.63456" lon="4.98239">
        <ele>193.36</ele>
        <time>2019-02-12T16:10:27Z</time>
      </trkpt>
      <trkpt lat="49.63463" lon="4.98221">
        <ele>192.4</ele>
        <time>2019-02-12T16:10:43Z</time>
      </trkpt>
      <trkpt lat="49.63471" lon="4.98196">
        <ele>188.56</ele>
        <time>2019-02-12T16:11:04Z</time>
      </trkpt>
      <trkpt lat="49.63477" lon="4.98183">
        <ele>187.11</ele>
        <time>2019-02-12T16:11:18Z</time>
      </trkpt>
      <trkpt lat="49.63484" lon="4.98162">
        <ele>185.67</ele>
        <time>2019-02-12T16:11:35Z</time>
      </trkpt>
      <trkpt lat="49.63494" lon="4.98143">
        <ele>181.83</ele>
        <time>2019-02-12T16:11:52Z</time>
      </trkpt>
      <trkpt lat="49.63495" lon="4.9814">
        <ele>181.83</ele>
        <time>2019-02-12T16:11:55Z</time>
      </trkpt>
      <trkpt lat="49.63494" lon="4.98118">
        <ele>181.83</ele>
        <time>2019-02-12T16:12:12Z</time>
      </trkpt>
      <trkpt lat="49.6349" lon="4.98113">
        <ele>180.87</ele>
        <time>2019-02-12T16:12:18Z</time>
      </trkpt>
      <trkpt lat="49.63486" lon="4.98107">
        <ele>180.38</ele>
        <time>2019-02-12T16:12:23Z</time>
      </trkpt>
      <trkpt lat="49.63477" lon="4.98091">
        <ele>177.02</ele>
        <time>2019-02-12T16:12:39Z</time>
      </trkpt>
      <trkpt lat="49.63467" lon="4.98076">
        <ele>172.21</ele>
        <time>2019-02-12T16:12:56Z</time>
      </trkpt>
      <trkpt lat="49.63458" lon="4.98063">
        <ele>176.54</ele>
        <time>2019-02-12T16:13:09Z</time>
      </trkpt>
      <trkpt lat="49.63456" lon="4.98054">
        <ele>180.38</ele>
        <time>2019-02-12T16:13:19Z</time>
      </trkpt>
      <trkpt lat="49.63455" lon="4.9805">
        <ele>180.87</ele>
        <time>2019-02-12T16:13:27Z</time>
      </trkpt>
      <trkpt lat="49.63455" lon="4.9805">
        <ele>180.87</ele>
        <time>2019-02-12T16:13:34Z</time>
      </trkpt>
    </trkseg>
  </trk>
</gpx>